Time,TemperatureF,DewpointF,PressureIn,WindDirection,WindDirectionDegrees,WindSpeedMPH,WindSpeedGustMPH,Humidity,HourlyPrecipIn,Conditions,Clouds,dailyrainin,SoftwareType,DateUTC
2013-10-31 00:01:00,66.7,59.7,29.88,East,90,0.0,0.0,78,0.00,,---,0.00,VWS V14.01,2013-10-31 04:01:00,
2013-10-31 00:06:00,66.9,60.2,29.88,East,90,0.0,0.0,79,0.00,,---,0.00,VWS V14.01,2013-10-31 04:06:00,
2013-10-31 00:11:00,66.9,60.2,29.88,ENE,68,0.0,0.0,79,0.00,,---,0.00,VWS V14.01,2013-10-31 04:11:00,
2013-10-31 00:16:00,67.1,60.4,29.88,ENE,68,0.0,0.0,79,0.00,,---,0.00,VWS V14.01,2013-10-31 04:16:00,
2013-10-31 00:21:00,67.1,60.4,29.88,ENE,68,0.0,0.0,79,0.00,,---,0.00,VWS V14.01,2013-10-31 04:21:00,
2013-10-31 00:26:00,66.9,60.2,29.88,ENE,68,0.0,0.0,79,0.00,,---,0.00,VWS V14.01,2013-10-31 04:26:00,
2013-10-31 00:31:00,66.7,60.0,29.88,ENE,68,0.0,0.0,79,0.00,,---,0.00,VWS V14.01,2013-10-31 04:31:00,
2013-10-31 00:36:00,66.9,60.6,29.88,ENE,68,0.0,0.0,80,0.00,,---,0.00,VWS V14.01,2013-10-31 04:36:00,
2013-10-31 00:41:00,66.9,60.6,29.88,ENE,68,0.0,0.0,80,0.00,,---,0.00,VWS V14.01,2013-10-31 04:41:00,
2013-10-31 00:46:00,67.1,60.7,29.88,ENE,68,0.0,0.0,80,0.00,,---,0.00,VWS V14.01,2013-10-31 04:46:00,
2013-10-31 00:51:00,67.1,61.1,29.88,ENE,68,0.0,0.0,81,0.00,,---,0.00,VWS V14.01,2013-10-31 04:51:00,
2013-10-31 00:56:00,67.1,61.1,29.88,ENE,68,0.0,0.0,81,0.00,,---,0.00,VWS V14.01,2013-10-31 04:56:00,
2013-10-31 01:00:00,66.7,59.7,29.88,East,90,0.0,0.0,78,0.00,,---,0.00,VWS V14.01,2013-10-31 05:00:00,
2013-10-31 01:01:00,67.3,61.3,29.88,ENE,68,0.0,0.0,81,0.00,,---,0.00,VWS V14.01,2013-10-31 05:01:00,
2013-10-31 01:02:00,66.7,59.7,29.88,East,90,0.0,0.0,78,0.00,,---,0.00,VWS V14.01,2013-10-31 05:02:00,
2013-10-31 01:03:00,66.7,59.7,29.88,East,90,0.0,0.0,78,0.00,,---,0.00,VWS V14.01,2013-10-31 05:03:00,
2013-10-31 01:04:00,66.7,60.0,29.88,East,90,0.0,0.0,79,0.00,,---,0.00,VWS V14.01,2013-10-31 05:04:00,
2013-10-31 01:05:00,66.7,60.0,29.88,East,90,0.0,0.0,79,0.00,,---,0.00,VWS V14.01,2013-10-31 05:05:00,
2013-10-31 01:06:00,67.5,61.4,29.88,ENE,68,0.0,0.0,81,0.00,,---,0.00,VWS V14.01,2013-10-31 05:06:00,
2013-10-31 01:07:00,66.9,60.2,29.88,East,90,0.0,0.0,79,0.00,,---,0.00,VWS V14.01,2013-10-31 05:07:00,
2013-10-31 01:08:00,66.9,60.2,29.88,East,90,0.0,0.0,79,0.00,,---,0.00,VWS V14.01,2013-10-31 05:08:00,
2013-10-31 01:09:00,66.9,60.2,29.88,East,90,0.0,0.0,79,0.00,,---,0.00,VWS V14.01,2013-10-31 05:09:00,
2013-10-31 01:10:00,66.9,60.2,29.88,East,90,0.0,0.0,79,0.00,,---,0.00,VWS V14.01,2013-10-31 05:10:00,
2013-10-31 01:11:00,67.5,61.4,29.88,ENE,68,0.0,0.0,81,0.00,,---,0.00,VWS V14.01,2013-10-31 05:11:00,
2013-10-31 01:12:00,66.9,60.2,29.88,ENE,68,0.0,0.0,79,0.00,,---,0.00,VWS V14.01,2013-10-31 05:12:00,
2013-10-31 01:13:00,67.1,60.4,29.88,ENE,68,0.0,0.0,79,0.00,,---,0.00,VWS V14.01,2013-10-31 05:13:00,
2013-10-31 01:14:00,67.1,60.4,29.88,ENE,68,0.0,0.0,79,0.00,,---,0.00,VWS V14.01,2013-10-31 05:14:00,
2013-10-31 01:15:00,67.1,60.4,29.88,ENE,68,0.0,0.0,79,0.00,,---,0.00,VWS V14.01,2013-10-31 05:15:00,
2013-10-31 01:16:00,67.5,61.4,29.88,ENE,68,0.0,0.0,81,0.00,,---,0.00,VWS V14.01,2013-10-31 05:16:00,
2013-10-31 01:17:00,67.1,60.4,29.88,ENE,68,0.0,0.0,79,0.00,,---,0.00,VWS V14.01,2013-10-31 05:17:00,
2013-10-31 01:18:00,67.1,60.4,29.88,ENE,68,0.0,0.0,79,0.00,,---,0.00,VWS V14.01,2013-10-31 05:18:00,
2013-10-31 01:19:00,67.1,60.4,29.88,ENE,68,0.0,0.0,79,0.00,,---,0.00,VWS V14.01,2013-10-31 05:19:00,
2013-10-31 01:20:00,67.1,60.4,29.88,ENE,68,0.0,0.0,79,0.00,,---,0.00,VWS V14.01,2013-10-31 05:20:00,
2013-10-31 01:21:00,67.3,61.3,29.88,ENE,68,0.0,0.0,81,0.00,,---,0.00,VWS V14.01,2013-10-31 05:21:00,
2013-10-31 01:22:00,67.1,60.4,29.88,ENE,68,0.0,0.0,79,0.00,,---,0.00,VWS V14.01,2013-10-31 05:22:00,
2013-10-31 01:23:00,67.1,60.4,29.88,ENE,68,0.0,0.0,79,0.00,,---,0.00,VWS V14.01,2013-10-31 05:23:00,
2013-10-31 01:24:00,67.1,60.4,29.88,ENE,68,0.0,0.0,79,0.00,,---,0.00,VWS V14.01,2013-10-31 05:24:00,
2013-10-31 01:25:00,66.9,60.2,29.88,ENE,68,0.0,0.0,79,0.00,,---,0.00,VWS V14.01,2013-10-31 05:25:00,
2013-10-31 01:26:00,67.3,61.3,29.88,ENE,68,0.0,0.0,81,0.00,,---,0.00,VWS V14.01,2013-10-31 05:26:00,
2013-10-31 01:27:00,66.9,60.2,29.88,ENE,68,0.0,0.0,79,0.00,,---,0.00,VWS V14.01,2013-10-31 05:27:00,
2013-10-31 01:28:00,66.9,60.2,29.88,ENE,68,0.0,0.0,79,0.00,,---,0.00,VWS V14.01,2013-10-31 05:28:00,
2013-10-31 01:29:00,66.9,60.2,29.88,ENE,68,0.0,0.0,79,0.00,,---,0.00,VWS V14.01,2013-10-31 05:29:00,
2013-10-31 01:30:00,66.9,60.2,29.88,ENE,68,0.0,0.0,79,0.00,,---,0.00,VWS V14.01,2013-10-31 05:30:00,
2013-10-31 01:31:00,67.1,61.1,29.88,ENE,68,0.0,0.0,81,0.00,,---,0.00,VWS V14.01,2013-10-31 05:31:00,
2013-10-31 01:32:00,66.7,60.0,29.88,ENE,68,0.0,0.0,79,0.00,,---,0.00,VWS V14.01,2013-10-31 05:32:00,
2013-10-31 01:33:00,66.7,60.0,29.88,ENE,68,0.0,0.0,79,0.00,,---,0.00,VWS V14.01,2013-10-31 05:33:00,
2013-10-31 01:34:00,66.9,60.6,29.88,ENE,68,0.0,0.0,80,0.00,,---,0.00,VWS V14.01,2013-10-31 05:34:00,
2013-10-31 01:35:00,66.9,60.6,29.88,ENE,68,0.0,0.0,80,0.00,,---,0.00,VWS V14.01,2013-10-31 05:35:00,
2013-10-31 01:36:00,66.9,60.9,29.88,ENE,68,0.0,0.0,81,0.00,,---,0.00,VWS V14.01,2013-10-31 05:36:00,
2013-10-31 01:37:00,66.9,60.6,29.88,ENE,68,0.0,0.0,80,0.00,,---,0.00,VWS V14.01,2013-10-31 05:37:00,
2013-10-31 01:38:00,66.9,60.6,29.88,ENE,68,0.0,0.0,80,0.00,,---,0.00,VWS V14.01,2013-10-31 05:38:00,
2013-10-31 01:39:00,66.7,60.4,29.88,ENE,68,0.0,0.0,80,0.00,,---,0.00,VWS V14.01,2013-10-31 05:39:00,
2013-10-31 01:40:00,66.7,60.4,29.88,ENE,68,0.0,0.0,80,0.00,,---,0.00,VWS V14.01,2013-10-31 05:40:00,
2013-10-31 01:41:00,66.6,60.6,29.88,ENE,68,0.0,0.0,81,0.00,,---,0.00,VWS V14.01,2013-10-31 05:41:00,
2013-10-31 01:42:00,66.9,60.6,29.88,ENE,68,0.0,0.0,80,0.00,,---,0.00,VWS V14.01,2013-10-31 05:42:00,
2013-10-31 01:43:00,66.9,60.6,29.88,ENE,68,0.0,0.0,80,0.00,,---,0.00,VWS V14.01,2013-10-31 05:43:00,
2013-10-31 01:44:00,66.9,60.6,29.88,ENE,68,0.0,0.0,80,0.00,,---,0.00,VWS V14.01,2013-10-31 05:44:00,
2013-10-31 01:45:00,66.9,60.6,29.88,ENE,68,0.0,0.0,80,0.00,,---,0.00,VWS V14.01,2013-10-31 05:45:00,
2013-10-31 01:46:00,66.4,60.4,29.88,ENE,68,0.0,0.0,81,0.00,,---,0.00,VWS V14.01,2013-10-31 05:46:00,
2013-10-31 01:47:00,67.1,60.7,29.88,ENE,68,0.0,0.0,80,0.00,,---,0.00,VWS V14.01,2013-10-31 05:47:00,
2013-10-31 01:48:00,67.1,60.7,29.88,ENE,68,0.0,0.0,80,0.00,,---,0.00,VWS V14.01,2013-10-31 05:48:00,
2013-10-31 01:49:00,67.1,60.7,29.88,ENE,68,0.0,0.0,80,0.00,,---,0.00,VWS V14.01,2013-10-31 05:49:00,
2013-10-31 01:50:00,67.1,61.1,29.88,ENE,68,0.0,0.0,81,0.00,,---,0.00,VWS V14.01,2013-10-31 05:50:00,
2013-10-31 01:51:00,66.4,60.4,29.88,ENE,68,0.0,0.0,81,0.00,,---,0.00,VWS V14.01,2013-10-31 05:51:00,
2013-10-31 01:52:00,67.1,61.1,29.88,ENE,68,0.0,0.0,81,0.00,,---,0.00,VWS V14.01,2013-10-31 05:52:00,
2013-10-31 01:53:00,67.1,61.1,29.88,ENE,68,0.0,0.0,81,0.00,,---,0.00,VWS V14.01,2013-10-31 05:53:00,
2013-10-31 01:54:00,67.1,61.1,29.88,ENE,68,0.0,0.0,81,0.00,,---,0.00,VWS V14.01,2013-10-31 05:54:00,
2013-10-31 01:55:00,67.1,61.1,29.88,ENE,68,0.0,0.0,81,0.00,,---,0.00,VWS V14.01,2013-10-31 05:55:00,
2013-10-31 01:56:00,66.0,60.4,29.88,ENE,68,0.0,0.0,82,0.00,,---,0.00,VWS V14.01,2013-10-31 05:56:00,
2013-10-31 01:57:00,67.1,61.1,29.88,ENE,68,0.0,0.0,81,0.00,,---,0.00,VWS V14.01,2013-10-31 05:57:00,
2013-10-31 01:58:00,67.1,61.1,29.88,ENE,68,0.0,0.0,81,0.00,,---,0.00,VWS V14.01,2013-10-31 05:58:00,
2013-10-31 01:59:00,67.3,61.3,29.88,ENE,68,0.0,0.0,81,0.00,,---,0.00,VWS V14.01,2013-10-31 05:59:00,
2013-10-31 02:00:00,67.3,61.3,29.88,ENE,68,0.0,0.0,81,0.00,,---,0.00,VWS V14.01,2013-10-31 06:00:00,
2013-10-31 02:01:00,66.0,60.4,29.88,ENE,68,0.0,0.0,82,0.00,,---,0.00,VWS V14.01,2013-10-31 06:01:00,
2013-10-31 02:02:00,67.3,61.3,29.88,ENE,68,0.0,0.0,81,0.00,,---,0.00,VWS V14.01,2013-10-31 06:02:00,
2013-10-31 02:03:00,67.3,61.3,29.88,ENE,68,0.0,0.0,81,0.00,,---,0.00,VWS V14.01,2013-10-31 06:03:00,
2013-10-31 02:04:00,67.3,61.3,29.88,ENE,68,0.0,0.0,81,0.00,,---,0.00,VWS V14.01,2013-10-31 06:04:00,
2013-10-31 02:05:00,67.3,61.3,29.88,ENE,68,0.0,0.0,81,0.00,,---,0.00,VWS V14.01,2013-10-31 06:05:00,
2013-10-31 02:06:00,66.0,60.7,29.88,ENE,68,0.0,0.0,83,0.00,,---,0.00,VWS V14.01,2013-10-31 06:06:00,
2013-10-31 02:07:00,67.5,61.4,29.88,ENE,68,0.0,0.0,81,0.00,,---,0.00,VWS V14.01,2013-10-31 06:07:00,
2013-10-31 02:08:00,67.5,61.4,29.88,ENE,68,0.0,0.0,81,0.00,,---,0.00,VWS V14.01,2013-10-31 06:08:00,
2013-10-31 02:09:00,67.5,61.4,29.88,ENE,68,0.0,0.0,81,0.00,,---,0.00,VWS V14.01,2013-10-31 06:09:00,
2013-10-31 02:10:00,67.5,61.4,29.88,ENE,68,0.0,0.0,81,0.00,,---,0.00,VWS V14.01,2013-10-31 06:10:00,
2013-10-31 02:11:00,66.2,60.9,29.88,ENE,68,0.0,0.0,83,0.00,,---,0.00,VWS V14.01,2013-10-31 06:11:00,
2013-10-31 02:12:00,67.5,61.4,29.88,ENE,68,0.0,0.0,81,0.00,,---,0.00,VWS V14.01,2013-10-31 06:12:00,
2013-10-31 02:13:00,67.5,61.4,29.88,ENE,68,0.0,0.0,81,0.00,,---,0.00,VWS V14.01,2013-10-31 06:13:00,
2013-10-31 02:14:00,67.5,61.4,29.88,ENE,68,0.0,0.0,81,0.00,,---,0.00,VWS V14.01,2013-10-31 06:14:00,
2013-10-31 02:15:00,67.5,61.4,29.88,ENE,68,0.0,0.0,81,0.00,,---,0.00,VWS V14.01,2013-10-31 06:15:00,
2013-10-31 02:16:00,66.2,60.9,29.88,ENE,68,0.0,0.0,83,0.00,,---,0.00,VWS V14.01,2013-10-31 06:16:00,
2013-10-31 02:17:00,67.5,61.4,29.88,ENE,68,0.0,0.0,81,0.00,,---,0.00,VWS V14.01,2013-10-31 06:17:00,
2013-10-31 02:18:00,67.5,61.4,29.88,ENE,68,0.0,0.0,81,0.00,,---,0.00,VWS V14.01,2013-10-31 06:18:00,
2013-10-31 02:19:00,67.5,61.4,29.88,ENE,68,0.0,0.0,81,0.00,,---,0.00,VWS V14.01,2013-10-31 06:19:00,
2013-10-31 02:20:00,67.5,61.4,29.88,ENE,68,0.0,0.0,81,0.00,,---,0.00,VWS V14.01,2013-10-31 06:20:00,
2013-10-31 02:21:00,66.2,61.2,29.85,ENE,68,0.0,0.0,84,0.00,,---,0.00,VWS V14.01,2013-10-31 06:21:00,
2013-10-31 02:22:00,67.3,61.3,29.88,ENE,68,0.0,0.0,81,0.00,,---,0.00,VWS V14.01,2013-10-31 06:22:00,
2013-10-31 02:23:00,67.3,61.3,29.88,ENE,68,0.0,0.0,81,0.00,,---,0.00,VWS V14.01,2013-10-31 06:23:00,
2013-10-31 02:24:00,67.3,61.3,29.88,ENE,68,0.0,0.0,81,0.00,,---,0.00,VWS V14.01,2013-10-31 06:24:00,
2013-10-31 02:25:00,67.3,61.3,29.88,ENE,68,0.0,0.0,81,0.00,,---,0.00,VWS V14.01,2013-10-31 06:25:00,
2013-10-31 02:26:00,66.4,61.4,29.85,ENE,68,0.0,0.0,84,0.00,,---,0.00,VWS V14.01,2013-10-31 06:26:00,
2013-10-31 02:27:00,67.3,61.3,29.88,ENE,68,0.0,0.0,81,0.00,,---,0.00,VWS V14.01,2013-10-31 06:27:00,
2013-10-31 02:28:00,67.3,61.3,29.88,ENE,68,0.0,0.0,81,0.00,,---,0.00,VWS V14.01,2013-10-31 06:28:00,
2013-10-31 02:29:00,67.3,61.3,29.88,ENE,68,0.0,0.0,81,0.00,,---,0.00,VWS V14.01,2013-10-31 06:29:00,
2013-10-31 02:30:00,67.1,61.1,29.88,ENE,68,0.0,0.0,81,0.00,,---,0.00,VWS V14.01,2013-10-31 06:30:00,
2013-10-31 02:31:00,66.6,61.6,29.85,ENE,68,0.0,0.0,84,0.00,,---,0.00,VWS V14.01,2013-10-31 06:31:00,
2013-10-31 02:32:00,67.1,61.1,29.88,ENE,68,0.0,0.0,81,0.00,,---,0.00,VWS V14.01,2013-10-31 06:32:00,
2013-10-31 02:33:00,67.1,61.1,29.88,ENE,68,0.0,0.0,81,0.00,,---,0.00,VWS V14.01,2013-10-31 06:33:00,
2013-10-31 02:34:00,66.9,60.9,29.88,ENE,68,0.0,0.0,81,0.00,,---,0.00,VWS V14.01,2013-10-31 06:34:00,
2013-10-31 02:35:00,66.9,60.9,29.88,ENE,68,0.0,0.0,81,0.00,,---,0.00,VWS V14.01,2013-10-31 06:35:00,
2013-10-31 02:36:00,66.7,62.1,29.88,ENE,68,0.0,0.0,85,0.00,,---,0.00,VWS V14.01,2013-10-31 06:36:00,
2013-10-31 02:37:00,66.7,60.7,29.88,ENE,68,0.0,0.0,81,0.00,,---,0.00,VWS V14.01,2013-10-31 06:37:00,
2013-10-31 02:38:00,66.7,60.7,29.88,ENE,68,0.0,0.0,81,0.00,,---,0.00,VWS V14.01,2013-10-31 06:38:00,
2013-10-31 02:39:00,66.6,60.6,29.88,ENE,68,0.0,0.0,81,0.00,,---,0.00,VWS V14.01,2013-10-31 06:39:00,
2013-10-31 02:40:00,66.6,60.6,29.88,ENE,68,0.0,0.0,81,0.00,,---,0.00,VWS V14.01,2013-10-31 06:40:00,
2013-10-31 02:41:00,66.7,62.1,29.88,ENE,68,0.0,0.0,85,0.00,,---,0.00,VWS V14.01,2013-10-31 06:41:00,
2013-10-31 02:42:00,66.6,60.6,29.88,ENE,68,0.0,0.0,81,0.00,,---,0.00,VWS V14.01,2013-10-31 06:42:00,
2013-10-31 02:43:00,66.6,60.6,29.88,ENE,68,0.0,0.0,81,0.00,,---,0.00,VWS V14.01,2013-10-31 06:43:00,
2013-10-31 02:44:00,66.6,60.6,29.88,ENE,68,0.0,0.0,81,0.00,,---,0.00,VWS V14.01,2013-10-31 06:44:00,
2013-10-31 02:45:00,66.4,60.4,29.88,ENE,68,0.0,0.0,81,0.00,,---,0.00,VWS V14.01,2013-10-31 06:45:00,
2013-10-31 02:46:00,66.9,62.6,29.88,ENE,68,0.0,0.0,86,0.00,,---,0.00,VWS V14.01,2013-10-31 06:46:00,
2013-10-31 02:47:00,66.4,60.4,29.88,ENE,68,0.0,0.0,81,0.00,,---,0.00,VWS V14.01,2013-10-31 06:47:00,
2013-10-31 02:48:00,66.4,60.4,29.88,ENE,68,0.0,0.0,81,0.00,,---,0.00,VWS V14.01,2013-10-31 06:48:00,
2013-10-31 02:49:00,66.4,60.4,29.88,ENE,68,0.0,0.0,81,0.00,,---,0.00,VWS V14.01,2013-10-31 06:49:00,
2013-10-31 02:50:00,66.4,60.4,29.88,ENE,68,0.0,0.0,81,0.00,,---,0.00,VWS V14.01,2013-10-31 06:50:00,
2013-10-31 02:51:00,67.1,62.8,29.88,ENE,68,0.0,0.0,86,0.00,,---,0.00,VWS V14.01,2013-10-31 06:51:00,
2013-10-31 02:52:00,66.4,60.4,29.88,ENE,68,0.0,0.0,81,0.00,,---,0.00,VWS V14.01,2013-10-31 06:52:00,
2013-10-31 02:53:00,66.2,60.5,29.88,ENE,68,0.0,0.0,82,0.00,,---,0.00,VWS V14.01,2013-10-31 06:53:00,
2013-10-31 02:54:00,66.2,60.2,29.88,ENE,68,0.0,0.0,81,0.00,,---,0.00,VWS V14.01,2013-10-31 06:54:00,
2013-10-31 02:55:00,66.0,60.4,29.88,ENE,68,0.0,0.0,82,0.00,,---,0.00,VWS V14.01,2013-10-31 06:55:00,
2013-10-31 02:56:00,67.3,63.0,29.88,ENE,68,0.0,0.0,86,0.00,,---,0.00,VWS V14.01,2013-10-31 06:56:00,
2013-10-31 02:57:00,66.0,60.4,29.88,ENE,68,0.0,0.0,82,0.00,,---,0.00,VWS V14.01,2013-10-31 06:57:00,
2013-10-31 02:58:00,66.0,60.4,29.88,ENE,68,0.0,0.0,82,0.00,,---,0.00,VWS V14.01,2013-10-31 06:58:00,
2013-10-31 02:59:00,66.0,60.4,29.88,ENE,68,0.0,0.0,82,0.00,,---,0.00,VWS V14.01,2013-10-31 06:59:00,
2013-10-31 03:00:00,66.0,60.4,29.88,ENE,68,0.0,0.0,82,0.00,,---,0.00,VWS V14.01,2013-10-31 07:00:00,
2013-10-31 03:01:00,67.3,63.0,29.88,ENE,68,0.0,0.0,86,0.00,,---,0.00,VWS V14.01,2013-10-31 07:01:00,
2013-10-31 03:02:00,66.0,60.4,29.88,ENE,68,0.0,0.0,82,0.00,,---,0.00,VWS V14.01,2013-10-31 07:02:00,
2013-10-31 03:03:00,66.0,60.4,29.88,ENE,68,0.0,0.0,82,0.00,,---,0.00,VWS V14.01,2013-10-31 07:03:00,
2013-10-31 03:04:00,66.0,60.4,29.88,ENE,68,0.0,0.0,82,0.00,,---,0.00,VWS V14.01,2013-10-31 07:04:00,
2013-10-31 03:05:00,66.0,60.7,29.88,ENE,68,0.0,0.0,83,0.00,,---,0.00,VWS V14.01,2013-10-31 07:05:00,
2013-10-31 03:06:00,67.3,63.0,29.85,ENE,68,0.0,0.0,86,0.00,,---,0.00,VWS V14.01,2013-10-31 07:06:00,
2013-10-31 03:07:00,66.0,60.7,29.88,ENE,68,0.0,0.0,83,0.00,,---,0.00,VWS V14.01,2013-10-31 07:07:00,
2013-10-31 03:08:00,66.0,60.7,29.88,ENE,68,0.0,0.0,83,0.00,,---,0.00,VWS V14.01,2013-10-31 07:08:00,
2013-10-31 03:09:00,66.0,60.7,29.88,ENE,68,0.0,0.0,83,0.00,,---,0.00,VWS V14.01,2013-10-31 07:09:00,
2013-10-31 03:10:00,66.0,60.7,29.88,ENE,68,0.0,0.0,83,0.00,,---,0.00,VWS V14.01,2013-10-31 07:10:00,
2013-10-31 03:11:00,67.5,63.1,29.85,ENE,68,0.0,0.0,86,0.00,,---,0.00,VWS V14.01,2013-10-31 07:11:00,
2013-10-31 03:12:00,66.2,60.9,29.88,ENE,68,0.0,0.0,83,0.00,,---,0.00,VWS V14.01,2013-10-31 07:12:00,
2013-10-31 03:13:00,66.2,60.9,29.88,ENE,68,0.0,0.0,83,0.00,,---,0.00,VWS V14.01,2013-10-31 07:13:00,
2013-10-31 03:14:00,66.0,61.0,29.88,ENE,68,0.0,0.0,84,0.00,,---,0.00,VWS V14.01,2013-10-31 07:14:00,
2013-10-31 03:15:00,66.0,61.0,29.88,ENE,68,0.0,0.0,84,0.00,,---,0.00,VWS V14.01,2013-10-31 07:15:00,
2013-10-31 03:16:00,67.5,63.1,29.85,ENE,68,0.0,0.0,86,0.00,,---,0.00,VWS V14.01,2013-10-31 07:16:00,
2013-10-31 03:17:00,66.2,60.9,29.88,ENE,68,0.0,0.0,83,0.00,,---,0.00,VWS V14.01,2013-10-31 07:17:00,
2013-10-31 03:18:00,66.2,61.2,29.88,ENE,68,0.0,0.0,84,0.00,,---,0.00,VWS V14.01,2013-10-31 07:18:00,
2013-10-31 03:19:00,66.2,61.2,29.88,ENE,68,0.0,0.0,84,0.00,,---,0.00,VWS V14.01,2013-10-31 07:19:00,
2013-10-31 03:20:00,66.2,61.2,29.88,ENE,68,0.0,0.0,84,0.00,,---,0.00,VWS V14.01,2013-10-31 07:20:00,
2013-10-31 03:21:00,67.5,63.1,29.85,ENE,68,0.0,0.0,86,0.00,,---,0.00,VWS V14.01,2013-10-31 07:21:00,
2013-10-31 03:22:00,66.2,61.2,29.85,ENE,68,0.0,0.0,84,0.00,,---,0.00,VWS V14.01,2013-10-31 07:22:00,
2013-10-31 03:23:00,66.2,61.2,29.85,ENE,68,0.0,0.0,84,0.00,,---,0.00,VWS V14.01,2013-10-31 07:23:00,
2013-10-31 03:24:00,66.2,61.2,29.85,ENE,68,0.0,0.0,84,0.00,,---,0.00,VWS V14.01,2013-10-31 07:24:00,
2013-10-31 03:25:00,66.2,61.2,29.85,ENE,68,0.0,0.0,84,0.00,,---,0.00,VWS V14.01,2013-10-31 07:25:00,
2013-10-31 03:26:00,67.5,63.1,29.85,ENE,68,0.0,0.0,86,0.00,,---,0.00,VWS V14.01,2013-10-31 07:26:00,
2013-10-31 03:27:00,66.4,61.4,29.85,ENE,68,0.0,0.0,84,0.00,,---,0.00,VWS V14.01,2013-10-31 07:27:00,
2013-10-31 03:28:00,66.4,61.4,29.85,ENE,68,0.0,0.0,84,0.00,,---,0.00,VWS V14.01,2013-10-31 07:28:00,
2013-10-31 03:29:00,66.4,61.4,29.85,ENE,68,0.0,0.0,84,0.00,,---,0.00,VWS V14.01,2013-10-31 07:29:00,
2013-10-31 03:30:00,66.4,61.4,29.85,ENE,68,0.0,0.0,84,0.00,,---,0.00,VWS V14.01,2013-10-31 07:30:00,
2013-10-31 03:31:00,67.5,63.1,29.85,ENE,68,0.0,0.0,86,0.00,,---,0.00,VWS V14.01,2013-10-31 07:31:00,
2013-10-31 03:32:00,66.6,61.9,29.85,ENE,68,0.0,0.0,85,0.00,,---,0.00,VWS V14.01,2013-10-31 07:32:00,
2013-10-31 03:33:00,66.6,61.9,29.85,ENE,68,0.0,0.0,85,0.00,,---,0.00,VWS V14.01,2013-10-31 07:33:00,
2013-10-31 03:34:00,66.6,61.9,29.85,ENE,68,0.0,0.0,85,0.00,,---,0.00,VWS V14.01,2013-10-31 07:34:00,
2013-10-31 03:35:00,66.6,61.9,29.85,ENE,68,0.0,0.0,85,0.00,,---,0.00,VWS V14.01,2013-10-31 07:35:00,
2013-10-31 03:36:00,67.5,63.5,29.85,ENE,68,0.0,0.0,87,0.00,,---,0.00,VWS V14.01,2013-10-31 07:36:00,
2013-10-31 03:37:00,66.7,62.1,29.88,ENE,68,0.0,0.0,85,0.00,,---,0.00,VWS V14.01,2013-10-31 07:37:00,
2013-10-31 03:38:00,66.7,62.1,29.88,ENE,68,0.0,0.0,85,0.00,,---,0.00,VWS V14.01,2013-10-31 07:38:00,
2013-10-31 03:39:00,66.7,62.1,29.88,ENE,68,0.0,0.0,85,0.00,,---,0.00,VWS V14.01,2013-10-31 07:39:00,
2013-10-31 03:40:00,66.7,62.1,29.88,ENE,68,0.0,0.0,85,0.00,,---,0.00,VWS V14.01,2013-10-31 07:40:00,
2013-10-31 03:41:00,67.6,63.6,29.85,ENE,68,0.0,0.0,87,0.00,,---,0.00,VWS V14.01,2013-10-31 07:41:00,
2013-10-31 03:42:00,66.7,62.1,29.88,ENE,68,0.0,0.0,85,0.00,,---,0.00,VWS V14.01,2013-10-31 07:42:00,
2013-10-31 03:43:00,66.7,62.1,29.88,ENE,68,0.0,0.0,85,0.00,,---,0.00,VWS V14.01,2013-10-31 07:43:00,
2013-10-31 03:44:00,66.9,62.6,29.88,ENE,68,0.0,0.0,86,0.00,,---,0.00,VWS V14.01,2013-10-31 07:44:00,
2013-10-31 03:45:00,66.9,62.6,29.88,ENE,68,0.0,0.0,86,0.00,,---,0.00,VWS V14.01,2013-10-31 07:45:00,
2013-10-31 03:46:00,67.6,63.6,29.85,ENE,68,0.0,0.0,87,0.00,,---,0.00,VWS V14.01,2013-10-31 07:46:00,
2013-10-31 03:47:00,66.9,62.6,29.88,ENE,68,0.0,0.0,86,0.00,,---,0.00,VWS V14.01,2013-10-31 07:47:00,
2013-10-31 03:48:00,66.9,62.6,29.88,ENE,68,0.0,0.0,86,0.00,,---,0.00,VWS V14.01,2013-10-31 07:48:00,
2013-10-31 03:49:00,66.9,62.6,29.88,ENE,68,0.0,0.0,86,0.00,,---,0.00,VWS V14.01,2013-10-31 07:49:00,
2013-10-31 03:50:00,67.1,62.8,29.88,ENE,68,0.0,0.0,86,0.00,,---,0.00,VWS V14.01,2013-10-31 07:50:00,
2013-10-31 03:51:00,67.6,63.6,29.85,ENE,68,0.0,0.0,87,0.00,,---,0.00,VWS V14.01,2013-10-31 07:51:00,
2013-10-31 03:52:00,67.1,62.8,29.88,ENE,68,0.0,0.0,86,0.00,,---,0.00,VWS V14.01,2013-10-31 07:52:00,
2013-10-31 03:53:00,67.1,62.8,29.88,ENE,68,0.0,0.0,86,0.00,,---,0.00,VWS V14.01,2013-10-31 07:53:00,
2013-10-31 03:54:00,67.1,62.8,29.88,ENE,68,0.0,0.0,86,0.00,,---,0.00,VWS V14.01,2013-10-31 07:54:00,
2013-10-31 03:55:00,67.1,62.8,29.88,ENE,68,0.0,0.0,86,0.00,,---,0.00,VWS V14.01,2013-10-31 07:55:00,
2013-10-31 03:56:00,67.6,63.6,29.85,ENE,68,0.0,0.0,87,0.00,,---,0.00,VWS V14.01,2013-10-31 07:56:00,
2013-10-31 03:57:00,67.3,63.0,29.88,ENE,68,0.0,0.0,86,0.00,,---,0.00,VWS V14.01,2013-10-31 07:57:00,
2013-10-31 03:58:00,67.3,63.0,29.88,ENE,68,0.0,0.0,86,0.00,,---,0.00,VWS V14.01,2013-10-31 07:58:00,
2013-10-31 03:59:00,67.3,63.0,29.88,ENE,68,0.0,0.0,86,0.00,,---,0.00,VWS V14.01,2013-10-31 07:59:00,
2013-10-31 04:00:00,67.3,63.0,29.88,ENE,68,0.0,0.0,86,0.00,,---,0.00,VWS V14.01,2013-10-31 08:00:00,
2013-10-31 04:01:00,67.5,63.1,29.85,ENE,68,0.0,0.0,86,0.00,,---,0.00,VWS V14.01,2013-10-31 08:01:00,
2013-10-31 04:02:00,67.3,63.0,29.88,ENE,68,0.0,0.0,86,0.00,,---,0.00,VWS V14.01,2013-10-31 08:02:00,
2013-10-31 04:03:00,67.3,63.0,29.88,ENE,68,0.0,0.0,86,0.00,,---,0.00,VWS V14.01,2013-10-31 08:03:00,
2013-10-31 04:04:00,67.3,63.0,29.88,ENE,68,0.0,0.0,86,0.00,,---,0.00,VWS V14.01,2013-10-31 08:04:00,
2013-10-31 04:05:00,67.3,63.0,29.88,ENE,68,0.0,0.0,86,0.00,,---,0.00,VWS V14.01,2013-10-31 08:05:00,
2013-10-31 04:06:00,67.3,63.0,29.85,ENE,68,0.0,0.0,86,0.00,,---,0.00,VWS V14.01,2013-10-31 08:06:00,
2013-10-31 04:07:00,67.3,63.0,29.85,ENE,68,0.0,0.0,86,0.00,,---,0.00,VWS V14.01,2013-10-31 08:07:00,
2013-10-31 04:08:00,67.3,63.0,29.85,ENE,68,0.0,0.0,86,0.00,,---,0.00,VWS V14.01,2013-10-31 08:08:00,
2013-10-31 04:09:00,67.3,63.0,29.85,ENE,68,0.0,0.0,86,0.00,,---,0.00,VWS V14.01,2013-10-31 08:09:00,
2013-10-31 04:10:00,67.5,63.1,29.85,ENE,68,0.0,0.0,86,0.00,,---,0.00,VWS V14.01,2013-10-31 08:10:00,
2013-10-31 04:11:00,67.1,62.8,29.85,ENE,68,0.0,0.0,86,0.00,,---,0.00,VWS V14.01,2013-10-31 08:11:00,
2013-10-31 04:12:00,67.5,63.1,29.85,ENE,68,0.0,0.0,86,0.00,,---,0.00,VWS V14.01,2013-10-31 08:12:00,
2013-10-31 04:13:00,67.6,63.6,29.85,ENE,68,0.0,0.0,87,0.00,,---,0.00,VWS V14.01,2013-10-31 08:13:00,
2013-10-31 04:14:00,67.6,63.6,29.85,ENE,68,0.0,0.0,87,0.00,,---,0.00,VWS V14.01,2013-10-31 08:14:00,
2013-10-31 04:15:00,67.5,63.1,29.85,ENE,68,0.0,0.0,86,0.00,,---,0.00,VWS V14.01,2013-10-31 08:15:00,
2013-10-31 04:16:00,66.9,62.6,29.85,ENE,68,0.0,0.0,86,0.00,,---,0.00,VWS V14.01,2013-10-31 08:16:00,
2013-10-31 04:17:00,67.5,63.1,29.85,ENE,68,0.0,0.0,86,0.00,,---,0.00,VWS V14.01,2013-10-31 08:17:00,
2013-10-31 04:18:00,67.5,63.1,29.85,ENE,68,0.0,0.0,86,0.00,,---,0.00,VWS V14.01,2013-10-31 08:18:00,
2013-10-31 04:19:00,67.5,63.1,29.85,ENE,68,0.0,0.0,86,0.00,,---,0.00,VWS V14.01,2013-10-31 08:19:00,
2013-10-31 04:20:00,67.5,63.1,29.85,ENE,68,0.0,0.0,86,0.00,,---,0.00,VWS V14.01,2013-10-31 08:20:00,
2013-10-31 04:21:00,66.9,62.6,29.85,ENE,68,0.0,0.0,86,0.00,,---,0.00,VWS V14.01,2013-10-31 08:21:00,
2013-10-31 04:22:00,67.5,63.1,29.85,ENE,68,0.0,0.0,86,0.00,,---,0.00,VWS V14.01,2013-10-31 08:22:00,
2013-10-31 04:23:00,67.5,63.1,29.85,ENE,68,0.0,0.0,86,0.00,,---,0.00,VWS V14.01,2013-10-31 08:23:00,
2013-10-31 04:24:00,67.5,63.1,29.85,ENE,68,0.0,0.0,86,0.00,,---,0.00,VWS V14.01,2013-10-31 08:24:00,
2013-10-31 04:25:00,67.5,63.1,29.85,ENE,68,0.0,0.0,86,0.00,,---,0.00,VWS V14.01,2013-10-31 08:25:00,
2013-10-31 04:26:00,66.6,62.2,29.85,ENE,68,0.0,0.0,86,0.00,,---,0.00,VWS V14.01,2013-10-31 08:26:00,
2013-10-31 04:27:00,67.5,63.1,29.85,ENE,68,0.0,0.0,86,0.00,,---,0.00,VWS V14.01,2013-10-31 08:27:00,
2013-10-31 04:28:00,67.3,63.0,29.85,ENE,68,0.0,0.0,86,0.00,,---,0.00,VWS V14.01,2013-10-31 08:28:00,
2013-10-31 04:29:00,67.3,63.0,29.85,ENE,68,0.0,0.0,86,0.00,,---,0.00,VWS V14.01,2013-10-31 08:29:00,
2013-10-31 04:31:00,66.4,62.1,29.85,ENE,68,0.0,0.0,86,0.00,,---,0.00,VWS V14.01,2013-10-31 08:31:00,
2013-10-31 04:32:00,67.5,63.1,29.85,ENE,68,0.0,0.0,86,0.00,,---,0.00,VWS V14.01,2013-10-31 08:32:00,
2013-10-31 04:33:00,67.5,63.1,29.85,ENE,68,0.0,0.0,86,0.00,,---,0.00,VWS V14.01,2013-10-31 08:33:00,
2013-10-31 04:34:00,67.5,63.1,29.85,ENE,68,0.0,0.0,86,0.00,,---,0.00,VWS V14.01,2013-10-31 08:34:00,
2013-10-31 04:36:00,66.4,62.1,29.85,ENE,68,0.0,0.0,86,0.00,,---,0.00,VWS V14.01,2013-10-31 08:36:00,
2013-10-31 04:37:00,67.5,63.5,29.85,ENE,68,0.0,0.0,87,0.00,,---,0.00,VWS V14.01,2013-10-31 08:37:00,
2013-10-31 04:38:00,67.5,63.5,29.85,ENE,68,0.0,0.0,87,0.00,,---,0.00,VWS V14.01,2013-10-31 08:38:00,
2013-10-31 04:39:00,67.5,63.5,29.85,ENE,68,0.0,0.0,87,0.00,,---,0.00,VWS V14.01,2013-10-31 08:39:00,
2013-10-31 04:40:00,67.5,63.5,29.85,ENE,68,0.0,0.0,87,0.00,,---,0.00,VWS V14.01,2013-10-31 08:40:00,
2013-10-31 04:41:00,66.0,62.0,29.85,ENE,68,0.0,0.0,87,0.00,,---,0.00,VWS V14.01,2013-10-31 08:41:00,
2013-10-31 04:42:00,67.6,63.6,29.85,ENE,68,0.0,0.0,87,0.00,,---,0.00,VWS V14.01,2013-10-31 08:42:00,
2013-10-31 04:43:00,67.6,63.6,29.85,ENE,68,0.0,0.0,87,0.00,,---,0.00,VWS V14.01,2013-10-31 08:43:00,
2013-10-31 04:44:00,67.6,63.6,29.85,ENE,68,0.0,0.0,87,0.00,,---,0.00,VWS V14.01,2013-10-31 08:44:00,
2013-10-31 04:45:00,67.6,63.6,29.85,ENE,68,0.0,0.0,87,0.00,,---,0.00,VWS V14.01,2013-10-31 08:45:00,
2013-10-31 04:46:00,66.0,62.0,29.85,ENE,68,0.0,0.0,87,0.00,,---,0.00,VWS V14.01,2013-10-31 08:46:00,
2013-10-31 04:47:00,67.6,63.6,29.85,ENE,68,0.0,0.0,87,0.00,,---,0.00,VWS V14.01,2013-10-31 08:47:00,
2013-10-31 04:48:00,67.6,63.6,29.85,ENE,68,0.0,0.0,87,0.00,,---,0.00,VWS V14.01,2013-10-31 08:48:00,
2013-10-31 04:49:00,67.6,63.6,29.85,ENE,68,0.0,0.0,87,0.00,,---,0.00,VWS V14.01,2013-10-31 08:49:00,
2013-10-31 04:50:00,67.6,63.6,29.85,ENE,68,0.0,0.0,87,0.00,,---,0.00,VWS V14.01,2013-10-31 08:50:00,
2013-10-31 04:51:00,66.0,62.0,29.85,ENE,68,0.0,0.0,87,0.00,,---,0.00,VWS V14.01,2013-10-31 08:51:00,
2013-10-31 04:52:00,67.6,63.6,29.85,ENE,68,0.0,0.0,87,0.00,,---,0.00,VWS V14.01,2013-10-31 08:52:00,
2013-10-31 04:53:00,67.6,63.6,29.85,ENE,68,0.0,0.0,87,0.00,,---,0.00,VWS V14.01,2013-10-31 08:53:00,
2013-10-31 04:54:00,67.6,63.6,29.85,ENE,68,0.0,0.0,87,0.00,,---,0.00,VWS V14.01,2013-10-31 08:54:00,
2013-10-31 04:55:00,67.6,63.6,29.85,ENE,68,0.0,0.0,87,0.00,,---,0.00,VWS V14.01,2013-10-31 08:55:00,
2013-10-31 04:56:00,66.0,62.4,29.85,ENE,68,0.0,0.0,88,0.00,,---,0.00,VWS V14.01,2013-10-31 08:56:00,
2013-10-31 04:57:00,67.6,63.6,29.85,ENE,68,0.0,0.0,87,0.00,,---,0.00,VWS V14.01,2013-10-31 08:57:00,
2013-10-31 04:58:00,67.6,63.6,29.85,ENE,68,0.0,0.0,87,0.00,,---,0.00,VWS V14.01,2013-10-31 08:58:00,
2013-10-31 04:59:00,67.6,63.6,29.85,ENE,68,0.0,0.0,87,0.00,,---,0.00,VWS V14.01,2013-10-31 08:59:00,
2013-10-31 05:00:00,67.5,63.5,29.85,ENE,68,0.0,0.0,87,0.00,,---,0.00,VWS V14.01,2013-10-31 09:00:00,
2013-10-31 05:01:00,65.8,62.2,29.85,ENE,68,0.0,0.0,88,0.00,,---,0.00,VWS V14.01,2013-10-31 09:01:00,
2013-10-31 05:02:00,67.5,63.1,29.85,ENE,68,0.0,0.0,86,0.00,,---,0.00,VWS V14.01,2013-10-31 09:02:00,
2013-10-31 05:03:00,67.5,63.1,29.85,ENE,68,0.0,0.0,86,0.00,,---,0.00,VWS V14.01,2013-10-31 09:03:00,
2013-10-31 05:04:00,67.3,63.0,29.85,ENE,68,0.0,0.0,86,0.00,,---,0.00,VWS V14.01,2013-10-31 09:04:00,
2013-10-31 05:05:00,67.3,63.0,29.85,ENE,68,0.0,0.0,86,0.00,,---,0.00,VWS V14.01,2013-10-31 09:05:00,
2013-10-31 05:06:00,65.8,62.2,29.85,ENE,68,0.0,0.0,88,0.00,,---,0.00,VWS V14.01,2013-10-31 09:06:00,
2013-10-31 05:07:00,67.3,63.0,29.85,ENE,68,0.0,0.0,86,0.00,,---,0.00,VWS V14.01,2013-10-31 09:07:00,
2013-10-31 05:08:00,67.3,63.0,29.85,ENE,68,0.0,0.0,86,0.00,,---,0.00,VWS V14.01,2013-10-31 09:08:00,
2013-10-31 05:09:00,67.3,63.0,29.85,ENE,68,0.0,0.0,86,0.00,,---,0.00,VWS V14.01,2013-10-31 09:09:00,
2013-10-31 05:10:00,67.1,62.8,29.85,ENE,68,0.0,0.0,86,0.00,,---,0.00,VWS V14.01,2013-10-31 09:10:00,
2013-10-31 05:11:00,65.7,62.0,29.85,ENE,68,0.0,0.0,88,0.00,,---,0.00,VWS V14.01,2013-10-31 09:11:00,
2013-10-31 05:12:00,67.1,62.8,29.85,ENE,68,0.0,0.0,86,0.00,,---,0.00,VWS V14.01,2013-10-31 09:12:00,
2013-10-31 05:13:00,67.1,62.8,29.85,ENE,68,0.0,0.0,86,0.00,,---,0.00,VWS V14.01,2013-10-31 09:13:00,
2013-10-31 05:14:00,67.1,62.8,29.85,ENE,68,0.0,0.0,86,0.00,,---,0.00,VWS V14.01,2013-10-31 09:14:00,
2013-10-31 05:16:00,65.5,61.8,29.85,ENE,68,0.0,0.0,88,0.00,,---,0.00,VWS V14.01,2013-10-31 09:16:00,
2013-10-31 05:17:00,66.9,62.6,29.85,ENE,68,0.0,0.0,86,0.00,,---,0.00,VWS V14.01,2013-10-31 09:17:00,
2013-10-31 05:18:00,66.9,62.6,29.85,ENE,68,0.0,0.0,86,0.00,,---,0.00,VWS V14.01,2013-10-31 09:18:00,
2013-10-31 05:19:00,66.9,62.6,29.85,ENE,68,0.0,0.0,86,0.00,,---,0.00,VWS V14.01,2013-10-31 09:19:00,
2013-10-31 05:21:00,65.1,61.5,29.85,ENE,68,0.0,0.0,88,0.00,,---,0.00,VWS V14.01,2013-10-31 09:21:00,
2013-10-31 05:22:00,66.9,62.6,29.85,ENE,68,0.0,0.0,86,0.00,,---,0.00,VWS V14.01,2013-10-31 09:22:00,
2013-10-31 05:23:00,66.9,62.6,29.85,ENE,68,0.0,0.0,86,0.00,,---,0.00,VWS V14.01,2013-10-31 09:23:00,
2013-10-31 05:24:00,66.9,62.6,29.85,ENE,68,0.0,0.0,86,0.00,,---,0.00,VWS V14.01,2013-10-31 09:24:00,
2013-10-31 05:25:00,66.7,62.4,29.85,ENE,68,0.0,0.0,86,0.00,,---,0.00,VWS V14.01,2013-10-31 09:25:00,
2013-10-31 05:26:00,66.7,62.4,29.85,ENE,68,0.0,0.0,86,0.00,,---,0.00,VWS V14.01,2013-10-31 09:26:00,
2013-10-31 05:27:00,65.1,61.5,29.85,ENE,68,0.0,0.0,88,0.00,,---,0.00,VWS V14.01,2013-10-31 09:27:00,
2013-10-31 05:28:00,66.6,62.2,29.85,ENE,68,0.0,0.0,86,0.00,,---,0.00,VWS V14.01,2013-10-31 09:28:00,
2013-10-31 05:29:00,66.6,62.2,29.85,ENE,68,0.0,0.0,86,0.00,,---,0.00,VWS V14.01,2013-10-31 09:29:00,
2013-10-31 05:30:00,66.6,62.2,29.85,ENE,68,0.0,0.0,86,0.00,,---,0.00,VWS V14.01,2013-10-31 09:30:00,
2013-10-31 05:31:00,66.4,62.1,29.85,ENE,68,0.0,0.0,86,0.00,,---,0.00,VWS V14.01,2013-10-31 09:31:00,
2013-10-31 05:32:00,65.1,61.8,29.85,ENE,68,0.0,0.0,89,0.00,,---,0.00,VWS V14.01,2013-10-31 09:32:00,
2013-10-31 05:33:00,66.4,62.1,29.85,ENE,68,0.0,0.0,86,0.00,,---,0.00,VWS V14.01,2013-10-31 09:33:00,
2013-10-31 05:34:00,66.4,62.1,29.85,ENE,68,0.0,0.0,86,0.00,,---,0.00,VWS V14.01,2013-10-31 09:34:00,
2013-10-31 05:35:00,66.4,62.1,29.85,ENE,68,0.0,0.0,86,0.00,,---,0.00,VWS V14.01,2013-10-31 09:35:00,
2013-10-31 05:36:00,66.4,62.1,29.85,ENE,68,0.0,0.0,86,0.00,,---,0.00,VWS V14.01,2013-10-31 09:36:00,
2013-10-31 05:37:00,64.9,61.6,29.85,ENE,68,0.0,0.0,89,0.00,,---,0.00,VWS V14.01,2013-10-31 09:37:00,
2013-10-31 05:38:00,66.4,62.1,29.85,ENE,68,0.0,0.0,86,0.00,,---,0.00,VWS V14.01,2013-10-31 09:38:00,
2013-10-31 05:39:00,66.4,62.1,29.85,ENE,68,0.0,0.0,86,0.00,,---,0.00,VWS V14.01,2013-10-31 09:39:00,
2013-10-31 05:40:00,66.2,61.9,29.85,ENE,68,0.0,0.0,86,0.00,,---,0.00,VWS V14.01,2013-10-31 09:40:00,
2013-10-31 05:41:00,66.2,61.9,29.85,ENE,68,0.0,0.0,86,0.00,,---,0.00,VWS V14.01,2013-10-31 09:41:00,
2013-10-31 05:42:00,64.8,61.5,29.85,ENE,68,0.0,0.0,89,0.00,,---,0.00,VWS V14.01,2013-10-31 09:42:00,
2013-10-31 05:43:00,66.0,62.0,29.85,ENE,68,0.0,0.0,87,0.00,,---,0.00,VWS V14.01,2013-10-31 09:43:00,
2013-10-31 05:44:00,66.0,62.0,29.85,ENE,68,0.0,0.0,87,0.00,,---,0.00,VWS V14.01,2013-10-31 09:44:00,
2013-10-31 05:45:00,66.0,62.0,29.85,ENE,68,0.0,0.0,87,0.00,,---,0.00,VWS V14.01,2013-10-31 09:45:00,
2013-10-31 05:46:00,66.0,62.0,29.85,ENE,68,0.0,0.0,87,0.00,,---,0.00,VWS V14.01,2013-10-31 09:46:00,
2013-10-31 05:47:00,64.8,61.5,29.85,ENE,68,0.0,0.0,89,0.00,,---,0.00,VWS V14.01,2013-10-31 09:47:00,
2013-10-31 05:48:00,66.0,62.0,29.85,ENE,68,0.0,0.0,87,0.00,,---,0.00,VWS V14.01,2013-10-31 09:48:00,
2013-10-31 05:49:00,66.0,62.0,29.85,ENE,68,0.0,0.0,87,0.00,,---,0.00,VWS V14.01,2013-10-31 09:49:00,
2013-10-31 05:50:00,66.0,62.0,29.85,ENE,68,0.0,0.0,87,0.00,,---,0.00,VWS V14.01,2013-10-31 09:50:00,
2013-10-31 05:51:00,66.0,62.0,29.85,ENE,68,0.0,0.0,87,0.00,,---,0.00,VWS V14.01,2013-10-31 09:51:00,
2013-10-31 05:52:00,64.6,61.3,29.85,ENE,68,0.0,0.0,89,0.00,,---,0.00,VWS V14.01,2013-10-31 09:52:00,
2013-10-31 05:53:00,66.0,62.4,29.85,ENE,68,0.0,0.0,88,0.00,,---,0.00,VWS V14.01,2013-10-31 09:53:00,
2013-10-31 05:54:00,66.0,62.4,29.85,ENE,68,0.0,0.0,88,0.00,,---,0.00,VWS V14.01,2013-10-31 09:54:00,
2013-10-31 05:55:00,66.0,62.4,29.85,ENE,68,0.0,0.0,88,0.00,,---,0.00,VWS V14.01,2013-10-31 09:55:00,
2013-10-31 05:56:00,66.0,62.4,29.85,ENE,68,0.0,0.0,88,0.00,,---,0.00,VWS V14.01,2013-10-31 09:56:00,
2013-10-31 05:57:00,64.8,61.5,29.85,ENE,68,0.0,0.0,89,0.00,,---,0.00,VWS V14.01,2013-10-31 09:57:00,
2013-10-31 05:58:00,65.8,62.2,29.85,ENE,68,0.0,0.0,88,0.00,,---,0.00,VWS V14.01,2013-10-31 09:58:00,
2013-10-31 05:59:00,65.8,62.2,29.85,ENE,68,0.0,0.0,88,0.00,,---,0.00,VWS V14.01,2013-10-31 09:59:00,
2013-10-31 06:00:00,65.8,62.2,29.85,ENE,68,0.0,0.0,88,0.00,,---,0.00,VWS V14.01,2013-10-31 10:00:00,
2013-10-31 06:01:00,65.8,62.2,29.85,ENE,68,0.0,0.0,88,0.00,,---,0.00,VWS V14.01,2013-10-31 10:01:00,
2013-10-31 06:02:00,64.8,61.8,29.85,ENE,68,0.0,0.0,90,0.00,,---,0.00,VWS V14.01,2013-10-31 10:02:00,
2013-10-31 06:03:00,65.8,62.2,29.85,ENE,68,0.0,0.0,88,0.00,,---,0.00,VWS V14.01,2013-10-31 10:03:00,
2013-10-31 06:04:00,65.8,62.2,29.85,ENE,68,0.0,0.0,88,0.00,,---,0.00,VWS V14.01,2013-10-31 10:04:00,
2013-10-31 06:05:00,65.8,62.2,29.85,ENE,68,0.0,0.0,88,0.00,,---,0.00,VWS V14.01,2013-10-31 10:05:00,
2013-10-31 06:06:00,65.8,62.2,29.85,ENE,68,0.0,0.0,88,0.00,,---,0.00,VWS V14.01,2013-10-31 10:06:00,
2013-10-31 06:07:00,64.4,61.4,29.85,ENE,68,0.0,0.0,90,0.00,,---,0.00,VWS V14.01,2013-10-31 10:07:00,
2013-10-31 06:08:00,65.8,62.2,29.85,ENE,68,0.0,0.0,88,0.00,,---,0.00,VWS V14.01,2013-10-31 10:08:00,
2013-10-31 06:09:00,65.8,62.2,29.85,ENE,68,0.0,0.0,88,0.00,,---,0.00,VWS V14.01,2013-10-31 10:09:00,
2013-10-31 06:10:00,65.7,62.0,29.85,ENE,68,0.0,0.0,88,0.00,,---,0.00,VWS V14.01,2013-10-31 10:10:00,
2013-10-31 06:11:00,65.7,62.0,29.85,ENE,68,0.0,0.0,88,0.00,,---,0.00,VWS V14.01,2013-10-31 10:11:00,
2013-10-31 06:12:00,64.2,61.2,29.85,ENE,68,0.0,0.0,90,0.00,,---,0.00,VWS V14.01,2013-10-31 10:12:00,
2013-10-31 06:13:00,65.7,62.0,29.85,ENE,68,0.0,0.0,88,0.00,,---,0.00,VWS V14.01,2013-10-31 10:13:00,
2013-10-31 06:14:00,65.7,62.0,29.85,ENE,68,0.0,0.0,88,0.00,,---,0.00,VWS V14.01,2013-10-31 10:14:00,
2013-10-31 06:15:00,65.7,62.0,29.85,ENE,68,0.0,0.0,88,0.00,,---,0.00,VWS V14.01,2013-10-31 10:15:00,
2013-10-31 06:16:00,65.7,62.0,29.85,ENE,68,0.0,0.0,88,0.00,,---,0.00,VWS V14.01,2013-10-31 10:16:00,
2013-10-31 06:17:00,64.0,61.0,29.85,ENE,68,0.0,0.0,90,0.00,,---,0.00,VWS V14.01,2013-10-31 10:17:00,
2013-10-31 06:18:00,65.5,61.8,29.85,ENE,68,0.0,0.0,88,0.00,,---,0.00,VWS V14.01,2013-10-31 10:18:00,
2013-10-31 06:19:00,65.3,61.7,29.85,ENE,68,0.0,0.0,88,0.00,,---,0.00,VWS V14.01,2013-10-31 10:19:00,
2013-10-31 06:20:00,65.3,61.7,29.85,ENE,68,0.0,0.0,88,0.00,,---,0.00,VWS V14.01,2013-10-31 10:20:00,
2013-10-31 06:21:00,65.3,61.7,29.85,ENE,68,0.0,0.0,88,0.00,,---,0.00,VWS V14.01,2013-10-31 10:21:00,
2013-10-31 06:22:00,63.9,60.9,29.85,ENE,68,0.0,0.0,90,0.00,,---,0.00,VWS V14.01,2013-10-31 10:22:00,
2013-10-31 06:23:00,65.1,61.5,29.85,ENE,68,0.0,0.0,88,0.00,,---,0.00,VWS V14.01,2013-10-31 10:23:00,
2013-10-31 06:24:00,65.1,61.5,29.85,ENE,68,0.0,0.0,88,0.00,,---,0.00,VWS V14.01,2013-10-31 10:24:00,
2013-10-31 06:25:00,65.1,61.5,29.85,ENE,68,0.0,0.0,88,0.00,,---,0.00,VWS V14.01,2013-10-31 10:25:00,
2013-10-31 06:26:00,65.1,61.5,29.85,ENE,68,0.0,0.0,88,0.00,,---,0.00,VWS V14.01,2013-10-31 10:26:00,
2013-10-31 06:27:00,63.9,60.9,29.85,ENE,68,0.0,0.0,90,0.00,,---,0.00,VWS V14.01,2013-10-31 10:27:00,
2013-10-31 06:28:00,65.1,61.5,29.85,ENE,68,0.0,0.0,88,0.00,,---,0.00,VWS V14.01,2013-10-31 10:28:00,
2013-10-31 06:29:00,65.1,61.5,29.85,ENE,68,0.0,0.0,88,0.00,,---,0.00,VWS V14.01,2013-10-31 10:29:00,
2013-10-31 06:30:00,65.1,61.5,29.85,ENE,68,0.0,0.0,88,0.00,,---,0.00,VWS V14.01,2013-10-31 10:30:00,
2013-10-31 06:31:00,65.1,61.8,29.85,ENE,68,0.0,0.0,89,0.00,,---,0.00,VWS V14.01,2013-10-31 10:31:00,
2013-10-31 06:32:00,63.9,60.9,29.85,ENE,68,0.0,0.0,90,0.00,,---,0.00,VWS V14.01,2013-10-31 10:32:00,
2013-10-31 06:33:00,65.1,61.8,29.85,ENE,68,0.0,0.0,89,0.00,,---,0.00,VWS V14.01,2013-10-31 10:33:00,
2013-10-31 06:34:00,64.9,61.6,29.85,ENE,68,0.0,0.0,89,0.00,,---,0.00,VWS V14.01,2013-10-31 10:34:00,
2013-10-31 06:35:00,64.9,61.6,29.85,ENE,68,0.0,0.0,89,0.00,,---,0.00,VWS V14.01,2013-10-31 10:35:00,
2013-10-31 06:37:00,63.9,61.2,29.85,ENE,68,0.0,0.0,91,0.00,,---,0.00,VWS V14.01,2013-10-31 10:37:00,
2013-10-31 06:38:00,64.9,61.6,29.85,ENE,68,0.0,0.0,89,0.00,,---,0.00,VWS V14.01,2013-10-31 10:38:00,
2013-10-31 06:39:00,64.9,61.6,29.85,ENE,68,0.0,0.0,89,0.00,,---,0.00,VWS V14.01,2013-10-31 10:39:00,
2013-10-31 06:41:00,64.9,61.6,29.85,ENE,68,0.0,0.0,89,0.00,,---,0.00,VWS V14.01,2013-10-31 10:41:00,
2013-10-31 06:42:00,63.9,61.2,29.85,ENE,68,0.0,0.0,91,0.00,,---,0.00,VWS V14.01,2013-10-31 10:42:00,
2013-10-31 06:43:00,64.8,61.5,29.85,ENE,68,0.0,0.0,89,0.00,,---,0.00,VWS V14.01,2013-10-31 10:43:00,
2013-10-31 06:44:00,64.8,61.5,29.85,ENE,68,0.0,0.0,89,0.00,,---,0.00,VWS V14.01,2013-10-31 10:44:00,
2013-10-31 06:45:00,64.8,61.5,29.85,ENE,68,0.0,0.0,89,0.00,,---,0.00,VWS V14.01,2013-10-31 10:45:00,
2013-10-31 06:46:00,64.8,61.5,29.85,ENE,68,0.0,0.0,89,0.00,,---,0.00,VWS V14.01,2013-10-31 10:46:00,
2013-10-31 06:47:00,63.9,61.2,29.85,ENE,68,0.0,0.0,91,0.00,,---,0.00,VWS V14.01,2013-10-31 10:47:00,
2013-10-31 06:48:00,64.8,61.5,29.85,ENE,68,0.0,0.0,89,0.00,,---,0.00,VWS V14.01,2013-10-31 10:48:00,
2013-10-31 06:49:00,64.8,61.5,29.85,ENE,68,0.0,0.0,89,0.00,,---,0.00,VWS V14.01,2013-10-31 10:49:00,
2013-10-31 06:50:00,64.8,61.5,29.85,ENE,68,0.0,0.0,89,0.00,,---,0.00,VWS V14.01,2013-10-31 10:50:00,
2013-10-31 06:51:00,64.8,61.5,29.85,ENE,68,0.0,0.0,89,0.00,,---,0.00,VWS V14.01,2013-10-31 10:51:00,
2013-10-31 06:52:00,63.9,61.2,29.88,ENE,68,0.0,0.0,91,0.00,,---,0.00,VWS V14.01,2013-10-31 10:52:00,
2013-10-31 06:53:00,64.6,61.3,29.85,ENE,68,0.0,0.0,89,0.00,,---,0.00,VWS V14.01,2013-10-31 10:53:00,
2013-10-31 06:54:00,64.6,61.3,29.85,ENE,68,0.0,0.0,89,0.00,,---,0.00,VWS V14.01,2013-10-31 10:54:00,
2013-10-31 06:55:00,64.6,61.3,29.85,ENE,68,0.0,0.0,89,0.00,,---,0.00,VWS V14.01,2013-10-31 10:55:00,
2013-10-31 06:56:00,64.6,61.3,29.85,ENE,68,0.0,0.0,89,0.00,,---,0.00,VWS V14.01,2013-10-31 10:56:00,
2013-10-31 06:57:00,64.2,61.8,29.88,ENE,68,0.0,0.0,92,0.00,,---,0.00,VWS V14.01,2013-10-31 10:57:00,
2013-10-31 06:58:00,64.8,61.8,29.85,ENE,68,0.0,0.0,90,0.00,,---,0.00,VWS V14.01,2013-10-31 10:58:00,
2013-10-31 06:59:00,64.8,61.8,29.85,ENE,68,0.0,0.0,90,0.00,,---,0.00,VWS V14.01,2013-10-31 10:59:00,
2013-10-31 07:00:00,64.8,61.8,29.85,ENE,68,0.0,0.0,90,0.00,,---,0.00,VWS V14.01,2013-10-31 11:00:00,
2013-10-31 07:01:00,64.8,61.8,29.85,ENE,68,0.0,0.0,90,0.00,,---,0.00,VWS V14.01,2013-10-31 11:01:00,
2013-10-31 07:02:00,64.2,61.8,29.88,ENE,68,0.0,0.0,92,0.00,,---,0.00,VWS V14.01,2013-10-31 11:02:00,
2013-10-31 07:03:00,64.6,61.6,29.85,ENE,68,0.0,0.0,90,0.00,,---,0.00,VWS V14.01,2013-10-31 11:03:00,
2013-10-31 07:04:00,64.6,61.6,29.85,ENE,68,0.0,0.0,90,0.00,,---,0.00,VWS V14.01,2013-10-31 11:04:00,
2013-10-31 07:06:00,64.6,61.6,29.85,ENE,68,0.0,0.0,90,0.00,,---,0.00,VWS V14.01,2013-10-31 11:06:00,
2013-10-31 07:07:00,64.0,61.7,29.88,ENE,68,0.0,0.0,92,0.00,,---,0.00,VWS V14.01,2013-10-31 11:07:00,
2013-10-31 07:08:00,64.4,61.4,29.85,ENE,68,0.0,0.0,90,0.00,,---,0.00,VWS V14.01,2013-10-31 11:08:00,
2013-10-31 07:09:00,64.4,61.4,29.85,ENE,68,0.0,0.0,90,0.00,,---,0.00,VWS V14.01,2013-10-31 11:09:00,
2013-10-31 07:10:00,64.4,61.4,29.85,ENE,68,0.0,0.0,90,0.00,,---,0.00,VWS V14.01,2013-10-31 11:10:00,
2013-10-31 07:11:00,64.4,61.4,29.85,ENE,68,0.0,0.0,90,0.00,,---,0.00,VWS V14.01,2013-10-31 11:11:00,
2013-10-31 07:12:00,63.9,61.5,29.88,ENE,68,0.0,0.0,92,0.00,,---,0.00,VWS V14.01,2013-10-31 11:12:00,
2013-10-31 07:13:00,64.2,61.2,29.85,ENE,68,0.0,0.0,90,0.00,,---,0.00,VWS V14.01,2013-10-31 11:13:00,
2013-10-31 07:14:00,64.2,61.2,29.85,ENE,68,0.0,0.0,90,0.00,,---,0.00,VWS V14.01,2013-10-31 11:14:00,
2013-10-31 07:15:00,64.2,61.2,29.85,ENE,68,0.0,0.0,90,0.00,,---,0.00,VWS V14.01,2013-10-31 11:15:00,
2013-10-31 07:16:00,64.2,61.2,29.85,ENE,68,0.0,0.0,90,0.00,,---,0.00,VWS V14.01,2013-10-31 11:16:00,
2013-10-31 07:17:00,63.9,61.5,29.88,ENE,68,0.0,0.0,92,0.00,,---,0.00,VWS V14.01,2013-10-31 11:17:00,
2013-10-31 07:18:00,64.0,61.0,29.85,ENE,68,0.0,0.0,90,0.00,,---,0.00,VWS V14.01,2013-10-31 11:18:00,
2013-10-31 07:19:00,64.0,61.0,29.85,ENE,68,0.0,0.0,90,0.00,,---,0.00,VWS V14.01,2013-10-31 11:19:00,
2013-10-31 07:20:00,64.0,61.0,29.85,ENE,68,0.0,0.0,90,0.00,,---,0.00,VWS V14.01,2013-10-31 11:20:00,
2013-10-31 07:21:00,64.0,61.0,29.85,ENE,68,0.0,0.0,90,0.00,,---,0.00,VWS V14.01,2013-10-31 11:21:00,
2013-10-31 07:22:00,64.0,61.7,29.88,ENE,68,0.0,0.0,92,0.00,,---,0.00,VWS V14.01,2013-10-31 11:22:00,
2013-10-31 07:23:00,63.9,60.9,29.85,ENE,68,0.0,0.0,90,0.00,,---,0.00,VWS V14.01,2013-10-31 11:23:00,
2013-10-31 07:24:00,63.9,60.9,29.85,ENE,68,0.0,0.0,90,0.00,,---,0.00,VWS V14.01,2013-10-31 11:24:00,
2013-10-31 07:25:00,64.0,61.0,29.85,ENE,68,0.0,0.0,90,0.00,,---,0.00,VWS V14.01,2013-10-31 11:25:00,
2013-10-31 07:26:00,63.9,60.9,29.85,ENE,68,0.0,0.0,90,0.00,,---,0.00,VWS V14.01,2013-10-31 11:26:00,
2013-10-31 07:27:00,64.0,61.7,29.88,ENE,68,0.0,0.0,92,0.00,,---,0.00,VWS V14.01,2013-10-31 11:27:00,
2013-10-31 07:28:00,63.9,60.9,29.85,ENE,68,0.0,0.0,90,0.00,,---,0.00,VWS V14.01,2013-10-31 11:28:00,
2013-10-31 07:29:00,63.9,60.9,29.85,ENE,68,0.0,0.0,90,0.00,,---,0.00,VWS V14.01,2013-10-31 11:29:00,
2013-10-31 07:30:00,63.9,60.9,29.85,ENE,68,0.0,0.0,90,0.00,,---,0.00,VWS V14.01,2013-10-31 11:30:00,
2013-10-31 07:31:00,63.9,60.9,29.85,ENE,68,0.0,0.0,90,0.00,,---,0.00,VWS V14.01,2013-10-31 11:31:00,
2013-10-31 07:32:00,64.0,61.7,29.88,ENE,68,0.0,0.0,92,0.00,,---,0.00,VWS V14.01,2013-10-31 11:32:00,
2013-10-31 07:33:00,63.9,60.9,29.85,ENE,68,0.0,0.0,90,0.00,,---,0.00,VWS V14.01,2013-10-31 11:33:00,
2013-10-31 07:34:00,63.9,61.2,29.85,ENE,68,0.0,0.0,91,0.00,,---,0.00,VWS V14.01,2013-10-31 11:34:00,
2013-10-31 07:35:00,63.9,61.2,29.85,ENE,68,0.0,0.0,91,0.00,,---,0.00,VWS V14.01,2013-10-31 11:35:00,
2013-10-31 07:36:00,63.9,61.2,29.85,ENE,68,0.0,0.0,91,0.00,,---,0.00,VWS V14.01,2013-10-31 11:36:00,
2013-10-31 07:37:00,64.2,61.8,29.88,ENE,68,0.0,0.0,92,0.00,,---,0.00,VWS V14.01,2013-10-31 11:37:00,
2013-10-31 07:38:00,63.9,61.2,29.85,ENE,68,0.0,0.0,91,0.00,,---,0.00,VWS V14.01,2013-10-31 11:38:00,
2013-10-31 07:39:00,63.9,61.2,29.85,ENE,68,0.0,0.0,91,0.00,,---,0.00,VWS V14.01,2013-10-31 11:39:00,
2013-10-31 07:40:00,63.9,61.2,29.85,ENE,68,0.0,0.0,91,0.00,,---,0.00,VWS V14.01,2013-10-31 11:40:00,
2013-10-31 07:41:00,63.9,61.2,29.85,ENE,68,0.0,0.0,91,0.00,,---,0.00,VWS V14.01,2013-10-31 11:41:00,
2013-10-31 07:42:00,64.0,61.7,29.88,ENE,68,0.0,0.0,92,0.00,,---,0.00,VWS V14.01,2013-10-31 11:42:00,
2013-10-31 07:43:00,63.9,61.2,29.85,ENE,68,0.0,0.0,91,0.00,,---,0.00,VWS V14.01,2013-10-31 11:43:00,
2013-10-31 07:44:00,63.9,61.2,29.85,ENE,68,0.0,0.0,91,0.00,,---,0.00,VWS V14.01,2013-10-31 11:44:00,
2013-10-31 07:45:00,63.9,61.2,29.85,ENE,68,0.0,0.0,91,0.00,,---,0.00,VWS V14.01,2013-10-31 11:45:00,
2013-10-31 07:46:00,63.9,61.2,29.85,ENE,68,0.0,0.0,91,0.00,,---,0.00,VWS V14.01,2013-10-31 11:46:00,
2013-10-31 07:47:00,64.2,61.8,29.88,ENE,68,0.0,0.0,92,0.00,,---,0.00,VWS V14.01,2013-10-31 11:47:00,
2013-10-31 07:48:00,63.9,61.2,29.85,ENE,68,0.0,0.0,91,0.00,,---,0.00,VWS V14.01,2013-10-31 11:48:00,
2013-10-31 07:49:00,63.9,61.2,29.85,ENE,68,0.0,0.0,91,0.00,,---,0.00,VWS V14.01,2013-10-31 11:49:00,
2013-10-31 07:50:00,63.9,61.2,29.85,ENE,68,0.0,0.0,91,0.00,,---,0.00,VWS V14.01,2013-10-31 11:50:00,
2013-10-31 07:51:00,63.9,61.2,29.88,ENE,68,0.0,0.0,91,0.00,,---,0.00,VWS V14.01,2013-10-31 11:51:00,
2013-10-31 07:52:00,64.2,62.2,29.88,ENE,68,0.0,0.0,93,0.00,,---,0.00,VWS V14.01,2013-10-31 11:52:00,
2013-10-31 07:53:00,63.9,61.2,29.88,ENE,68,0.0,0.0,91,0.00,,---,0.00,VWS V14.01,2013-10-31 11:53:00,
2013-10-31 07:54:00,63.9,61.2,29.88,ENE,68,0.0,0.0,91,0.00,,---,0.00,VWS V14.01,2013-10-31 11:54:00,
2013-10-31 07:55:00,63.9,61.2,29.88,ENE,68,0.0,0.0,91,0.00,,---,0.00,VWS V14.01,2013-10-31 11:55:00,
2013-10-31 07:56:00,64.0,61.7,29.88,ENE,68,0.0,0.0,92,0.00,,---,0.00,VWS V14.01,2013-10-31 11:56:00,
2013-10-31 07:57:00,64.2,62.2,29.88,ENE,68,0.0,0.0,93,0.00,,---,0.00,VWS V14.01,2013-10-31 11:57:00,
2013-10-31 07:58:00,64.2,61.8,29.88,ENE,68,0.0,0.0,92,0.00,,---,0.00,VWS V14.01,2013-10-31 11:58:00,
2013-10-31 07:59:00,64.2,61.8,29.88,ENE,68,0.0,0.0,92,0.00,,---,0.00,VWS V14.01,2013-10-31 11:59:00,
2013-10-31 08:00:00,64.2,61.8,29.88,ENE,68,0.0,0.0,92,0.00,,---,0.00,VWS V14.01,2013-10-31 12:00:00,
2013-10-31 08:01:00,64.2,61.8,29.88,ENE,68,0.0,0.0,92,0.00,,---,0.00,VWS V14.01,2013-10-31 12:01:00,
2013-10-31 08:02:00,64.4,62.0,29.88,ENE,68,0.0,0.0,92,0.00,,---,0.00,VWS V14.01,2013-10-31 12:02:00,
2013-10-31 08:05:00,64.0,61.7,29.88,ENE,68,0.0,0.0,92,0.00,,---,0.00,VWS V14.01,2013-10-31 12:05:00,
2013-10-31 08:06:00,64.0,61.7,29.88,ENE,68,0.0,0.0,92,0.00,,---,0.00,VWS V14.01,2013-10-31 12:06:00,
2013-10-31 08:07:00,65.1,63.0,29.88,ENE,68,0.0,0.0,93,0.00,,---,0.00,VWS V14.01,2013-10-31 12:07:00,
2013-10-31 08:08:00,64.0,61.7,29.88,ENE,68,0.0,0.0,92,0.00,,---,0.00,VWS V14.01,2013-10-31 12:08:00,
2013-10-31 08:09:00,64.0,61.7,29.88,ENE,68,0.0,0.0,92,0.00,,---,0.00,VWS V14.01,2013-10-31 12:09:00,
2013-10-31 08:10:00,64.0,61.7,29.88,ENE,68,0.0,0.0,92,0.00,,---,0.00,VWS V14.01,2013-10-31 12:10:00,
2013-10-31 08:11:00,64.0,61.7,29.88,ENE,68,0.0,0.0,92,0.00,,---,0.00,VWS V14.01,2013-10-31 12:11:00,
2013-10-31 08:12:00,65.7,63.6,29.88,ENE,68,0.0,0.0,93,0.00,,---,0.00,VWS V14.01,2013-10-31 12:12:00,
2013-10-31 08:13:00,63.9,61.5,29.88,ENE,68,0.0,0.0,92,0.00,,---,0.00,VWS V14.01,2013-10-31 12:13:00,
2013-10-31 08:14:00,63.9,61.5,29.88,ENE,68,0.0,0.0,92,0.00,,---,0.00,VWS V14.01,2013-10-31 12:14:00,
2013-10-31 08:15:00,63.9,61.5,29.88,ENE,68,0.0,0.0,92,0.00,,---,0.00,VWS V14.01,2013-10-31 12:15:00,
2013-10-31 08:16:00,63.9,61.5,29.88,ENE,68,0.0,0.0,92,0.00,,---,0.00,VWS V14.01,2013-10-31 12:16:00,
2013-10-31 08:17:00,66.0,64.2,29.88,ENE,68,0.0,0.0,94,0.00,,---,0.00,VWS V14.01,2013-10-31 12:17:00,
2013-10-31 08:18:00,63.9,61.5,29.88,ENE,68,0.0,0.0,92,0.00,,---,0.00,VWS V14.01,2013-10-31 12:18:00,
2013-10-31 08:19:00,64.0,61.7,29.88,ENE,68,0.0,0.0,92,0.00,,---,0.00,VWS V14.01,2013-10-31 12:19:00,
2013-10-31 08:20:00,64.0,61.7,29.88,ENE,68,0.0,0.0,92,0.00,,---,0.00,VWS V14.01,2013-10-31 12:20:00,
2013-10-31 08:21:00,64.0,61.7,29.88,ENE,68,0.0,0.0,92,0.00,,---,0.00,VWS V14.01,2013-10-31 12:21:00,
2013-10-31 08:22:00,66.7,65.0,29.88,ENE,68,0.0,0.0,94,0.00,,---,0.00,VWS V14.01,2013-10-31 12:22:00,
2013-10-31 08:23:00,64.0,61.7,29.88,ENE,68,0.0,0.0,92,0.00,,---,0.00,VWS V14.01,2013-10-31 12:23:00,
2013-10-31 08:24:00,64.0,61.7,29.88,ENE,68,0.0,0.0,92,0.00,,---,0.00,VWS V14.01,2013-10-31 12:24:00,
2013-10-31 08:25:00,64.0,61.7,29.88,ENE,68,0.0,0.0,92,0.00,,---,0.00,VWS V14.01,2013-10-31 12:25:00,
2013-10-31 08:26:00,64.0,61.7,29.88,ENE,68,0.0,0.0,92,0.00,,---,0.00,VWS V14.01,2013-10-31 12:26:00,
2013-10-31 08:27:00,67.6,65.9,29.88,ENE,68,0.0,0.0,94,0.00,,---,0.00,VWS V14.01,2013-10-31 12:27:00,
2013-10-31 08:28:00,64.0,61.7,29.88,ENE,68,0.0,0.0,92,0.00,,---,0.00,VWS V14.01,2013-10-31 12:28:00,
2013-10-31 08:29:00,64.0,61.7,29.88,ENE,68,0.0,0.0,92,0.00,,---,0.00,VWS V14.01,2013-10-31 12:29:00,
2013-10-31 08:30:00,64.0,61.7,29.88,ENE,68,0.0,0.0,92,0.00,,---,0.00,VWS V14.01,2013-10-31 12:30:00,
2013-10-31 08:31:00,64.0,61.7,29.88,ENE,68,0.0,0.0,92,0.00,,---,0.00,VWS V14.01,2013-10-31 12:31:00,
2013-10-31 08:32:00,67.5,65.7,29.88,ENE,68,0.0,0.0,94,0.00,,---,0.00,VWS V14.01,2013-10-31 12:32:00,
2013-10-31 08:33:00,64.0,61.7,29.88,ENE,68,0.0,0.0,92,0.00,,---,0.00,VWS V14.01,2013-10-31 12:33:00,
2013-10-31 08:34:00,64.0,61.7,29.88,ENE,68,0.0,0.0,92,0.00,,---,0.00,VWS V14.01,2013-10-31 12:34:00,
2013-10-31 08:35:00,64.0,61.7,29.88,ENE,68,0.0,0.0,92,0.00,,---,0.00,VWS V14.01,2013-10-31 12:35:00,
2013-10-31 08:36:00,64.2,61.8,29.88,ENE,68,0.0,0.0,92,0.00,,---,0.00,VWS V14.01,2013-10-31 12:36:00,
2013-10-31 08:37:00,67.6,65.9,29.88,ENE,68,0.0,0.0,94,0.00,,---,0.00,VWS V14.01,2013-10-31 12:37:00,
2013-10-31 08:38:00,64.2,61.8,29.88,ENE,68,0.0,0.0,92,0.00,,---,0.00,VWS V14.01,2013-10-31 12:38:00,
2013-10-31 08:39:00,64.2,61.8,29.88,ENE,68,0.0,0.0,92,0.00,,---,0.00,VWS V14.01,2013-10-31 12:39:00,
2013-10-31 08:40:00,64.2,61.8,29.88,ENE,68,0.0,0.0,92,0.00,,---,0.00,VWS V14.01,2013-10-31 12:40:00,
2013-10-31 08:41:00,64.0,61.7,29.88,ENE,68,0.0,0.0,92,0.00,,---,0.00,VWS V14.01,2013-10-31 12:41:00,
2013-10-31 08:42:00,68.0,66.2,29.88,ENE,68,0.0,0.0,94,0.00,,---,0.00,VWS V14.01,2013-10-31 12:42:00,
2013-10-31 08:43:00,64.0,61.7,29.88,ENE,68,0.0,0.0,92,0.00,,---,0.00,VWS V14.01,2013-10-31 12:43:00,
2013-10-31 08:44:00,64.0,61.7,29.88,ENE,68,0.0,0.0,92,0.00,,---,0.00,VWS V14.01,2013-10-31 12:44:00,
2013-10-31 08:45:00,64.0,61.7,29.88,ENE,68,0.0,0.0,92,0.00,,---,0.00,VWS V14.01,2013-10-31 12:45:00,
2013-10-31 08:46:00,64.0,61.7,29.88,ENE,68,0.0,0.0,92,0.00,,---,0.00,VWS V14.01,2013-10-31 12:46:00,
2013-10-31 08:47:00,68.7,66.9,29.88,ENE,68,0.0,0.0,94,0.00,,---,0.00,VWS V14.01,2013-10-31 12:47:00,
2013-10-31 08:48:00,64.2,61.8,29.88,ENE,68,0.0,0.0,92,0.00,,---,0.00,VWS V14.01,2013-10-31 12:48:00,
2013-10-31 08:49:00,64.2,61.8,29.88,ENE,68,0.0,0.0,92,0.00,,---,0.00,VWS V14.01,2013-10-31 12:49:00,
2013-10-31 08:50:00,64.2,62.2,29.88,ENE,68,0.0,0.0,93,0.00,,---,0.00,VWS V14.01,2013-10-31 12:50:00,
2013-10-31 08:51:00,64.2,62.2,29.88,ENE,68,0.0,0.0,93,0.00,,---,0.00,VWS V14.01,2013-10-31 12:51:00,
2013-10-31 08:52:00,69.3,67.5,29.88,ENE,68,1.3,1.6,94,0.00,,---,0.00,VWS V14.01,2013-10-31 12:52:00,
2013-10-31 08:53:00,64.2,62.2,29.88,ENE,68,0.0,0.0,93,0.00,,---,0.00,VWS V14.01,2013-10-31 12:53:00,
2013-10-31 08:54:00,64.2,62.2,29.88,ENE,68,0.0,0.0,93,0.00,,---,0.00,VWS V14.01,2013-10-31 12:54:00,
2013-10-31 08:55:00,64.2,62.2,29.88,ENE,68,0.0,0.0,93,0.00,,---,0.00,VWS V14.01,2013-10-31 12:55:00,
2013-10-31 08:56:00,64.2,62.2,29.88,ENE,68,0.0,0.0,93,0.00,,---,0.00,VWS V14.01,2013-10-31 12:56:00,
2013-10-31 08:57:00,69.6,67.8,29.88,NE,45,0.0,0.9,94,0.00,,---,0.00,VWS V14.01,2013-10-31 12:57:00,
2013-10-31 08:58:00,64.2,62.2,29.88,ENE,68,0.0,0.0,93,0.00,,---,0.00,VWS V14.01,2013-10-31 12:58:00,
2013-10-31 08:59:00,64.2,62.2,29.88,ENE,68,0.0,0.0,93,0.00,,---,0.00,VWS V14.01,2013-10-31 12:59:00,
2013-10-31 09:00:00,64.4,62.0,29.88,ENE,68,0.0,0.0,92,0.00,,---,0.00,VWS V14.01,2013-10-31 13:00:00,
2013-10-31 09:01:00,64.4,62.0,29.88,ENE,68,0.0,0.0,92,0.00,,---,0.00,VWS V14.01,2013-10-31 13:01:00,
2013-10-31 09:02:00,69.8,68.0,29.88,ENE,68,1.6,2.2,94,0.00,,---,0.00,VWS V14.01,2013-10-31 13:02:00,
2013-10-31 09:03:00,64.4,62.0,29.88,ENE,68,0.0,0.0,92,0.00,,---,0.00,VWS V14.01,2013-10-31 13:03:00,
2013-10-31 09:04:00,64.6,62.2,29.88,ENE,68,0.0,0.0,92,0.00,,---,0.00,VWS V14.01,2013-10-31 13:04:00,
2013-10-31 09:05:00,64.8,62.4,29.88,ENE,68,0.0,0.0,92,0.00,,---,0.00,VWS V14.01,2013-10-31 13:05:00,
2013-10-31 09:06:00,64.9,62.9,29.88,ENE,68,0.0,0.0,93,0.00,,---,0.00,VWS V14.01,2013-10-31 13:06:00,
2013-10-31 09:07:00,70.0,67.9,29.88,East,90,1.6,2.9,93,0.00,,---,0.00,VWS V14.01,2013-10-31 13:07:00,
2013-10-31 09:09:00,65.1,63.0,29.88,ENE,68,0.0,0.0,93,0.00,,---,0.00,VWS V14.01,2013-10-31 13:09:00,
2013-10-31 09:10:00,65.3,63.2,29.88,ENE,68,0.0,0.0,93,0.00,,---,0.00,VWS V14.01,2013-10-31 13:10:00,
2013-10-31 09:11:00,65.3,63.2,29.88,ENE,68,0.0,0.0,93,0.00,,---,0.00,VWS V14.01,2013-10-31 13:11:00,
2013-10-31 09:12:00,71.1,68.9,29.88,ENE,68,2.7,3.4,93,0.00,,---,0.00,VWS V14.01,2013-10-31 13:12:00,
2013-10-31 09:13:00,65.7,63.6,29.88,ENE,68,0.0,0.0,93,0.00,,---,0.00,VWS V14.01,2013-10-31 13:13:00,
2013-10-31 09:14:00,65.7,63.6,29.88,ENE,68,0.0,0.0,93,0.00,,---,0.00,VWS V14.01,2013-10-31 13:14:00,
2013-10-31 09:15:00,65.7,63.6,29.88,ENE,68,0.0,0.0,93,0.00,,---,0.00,VWS V14.01,2013-10-31 13:15:00,
2013-10-31 09:16:00,65.7,63.6,29.88,ENE,68,0.0,0.0,93,0.00,,---,0.00,VWS V14.01,2013-10-31 13:16:00,
2013-10-31 09:17:00,72.5,70.4,29.88,SE,135,2.0,2.0,93,0.00,,---,0.00,VWS V14.01,2013-10-31 13:17:00,
2013-10-31 09:18:00,66.0,64.2,29.88,ENE,68,0.0,0.0,94,0.00,,---,0.00,VWS V14.01,2013-10-31 13:18:00,
2013-10-31 09:19:00,66.0,64.2,29.88,ENE,68,0.0,0.0,94,0.00,,---,0.00,VWS V14.01,2013-10-31 13:19:00,
2013-10-31 09:20:00,66.0,64.2,29.88,ENE,68,0.0,0.0,94,0.00,,---,0.00,VWS V14.01,2013-10-31 13:20:00,
2013-10-31 09:21:00,66.6,64.8,29.88,ENE,68,0.0,0.0,94,0.00,,---,0.00,VWS V14.01,2013-10-31 13:21:00,
2013-10-31 09:22:00,73.2,70.4,29.88,East,90,2.5,3.4,91,0.00,,---,0.00,VWS V14.01,2013-10-31 13:22:00,
2013-10-31 09:23:00,66.9,65.1,29.88,ENE,68,0.0,0.0,94,0.00,,---,0.00,VWS V14.01,2013-10-31 13:23:00,
2013-10-31 09:24:00,67.1,65.3,29.88,ENE,68,0.0,0.0,94,0.00,,---,0.00,VWS V14.01,2013-10-31 13:24:00,
2013-10-31 09:25:00,67.1,65.3,29.88,ENE,68,0.0,0.0,94,0.00,,---,0.00,VWS V14.01,2013-10-31 13:25:00,
2013-10-31 09:26:00,67.3,65.5,29.88,ENE,68,0.0,0.0,94,0.00,,---,0.00,VWS V14.01,2013-10-31 13:26:00,
2013-10-31 09:27:00,73.6,69.8,29.88,SE,135,1.3,1.3,88,0.00,,---,0.00,VWS V14.01,2013-10-31 13:27:00,
2013-10-31 09:28:00,67.6,65.9,29.88,ENE,68,0.0,0.0,94,0.00,,---,0.00,VWS V14.01,2013-10-31 13:28:00,
2013-10-31 09:29:00,67.5,65.7,29.88,ENE,68,0.0,0.0,94,0.00,,---,0.00,VWS V14.01,2013-10-31 13:29:00,
2013-10-31 09:30:00,67.5,65.7,29.88,ENE,68,0.0,0.0,94,0.00,,---,0.00,VWS V14.01,2013-10-31 13:30:00,
2013-10-31 09:31:00,67.5,65.7,29.88,ENE,68,0.0,0.0,94,0.00,,---,0.00,VWS V14.01,2013-10-31 13:31:00,
2013-10-31 09:32:00,73.9,68.8,29.88,ENE,68,0.0,0.0,84,0.00,,---,0.00,VWS V14.01,2013-10-31 13:32:00,
2013-10-31 09:33:00,67.5,65.7,29.88,ENE,68,0.0,0.0,94,0.00,,---,0.00,VWS V14.01,2013-10-31 13:33:00,
2013-10-31 09:34:00,67.5,65.7,29.88,ENE,68,0.0,0.0,94,0.00,,---,0.00,VWS V14.01,2013-10-31 13:34:00,
2013-10-31 09:35:00,67.5,65.7,29.88,ENE,68,0.0,0.0,94,0.00,,---,0.00,VWS V14.01,2013-10-31 13:35:00,
2013-10-31 09:36:00,67.5,65.7,29.88,ENE,68,0.0,0.0,94,0.00,,---,0.00,VWS V14.01,2013-10-31 13:36:00,
2013-10-31 09:37:00,74.1,67.9,29.88,East,90,3.8,4.0,81,0.00,,---,0.00,VWS V14.01,2013-10-31 13:37:00,
2013-10-31 09:38:00,67.6,65.9,29.88,ENE,68,0.0,0.0,94,0.00,,---,0.00,VWS V14.01,2013-10-31 13:38:00,
2013-10-31 09:39:00,67.8,66.0,29.88,ENE,68,0.0,0.0,94,0.00,,---,0.00,VWS V14.01,2013-10-31 13:39:00,
2013-10-31 09:40:00,67.8,66.0,29.88,ENE,68,0.0,0.0,94,0.00,,---,0.00,VWS V14.01,2013-10-31 13:40:00,
2013-10-31 09:41:00,67.8,66.0,29.88,ENE,68,0.0,2.0,94,0.00,,---,0.00,VWS V14.01,2013-10-31 13:41:00,
2013-10-31 09:42:00,74.7,67.3,29.88,ESE,112,2.5,2.7,78,0.00,,---,0.00,VWS V14.01,2013-10-31 13:42:00,
2013-10-31 09:43:00,68.2,66.4,29.88,ENE,68,0.0,0.0,94,0.00,,---,0.00,VWS V14.01,2013-10-31 13:43:00,
2013-10-31 09:44:00,68.4,66.6,29.88,ENE,68,0.0,0.0,94,0.00,,---,0.00,VWS V14.01,2013-10-31 13:44:00,
2013-10-31 09:45:00,68.4,66.6,29.88,ENE,68,0.9,1.6,94,0.00,,---,0.00,VWS V14.01,2013-10-31 13:45:00,
2013-10-31 09:46:00,68.5,66.8,29.88,ENE,68,0.0,0.9,94,0.00,,---,0.00,VWS V14.01,2013-10-31 13:46:00,
2013-10-31 09:47:00,75.2,64.8,29.88,East,90,2.7,5.8,70,0.00,,---,0.00,VWS V14.01,2013-10-31 13:47:00,
2013-10-31 09:48:00,68.7,66.9,29.88,ENE,68,1.6,1.6,94,0.00,,---,0.00,VWS V14.01,2013-10-31 13:48:00,
2013-10-31 09:49:00,68.9,67.1,29.88,ENE,68,1.1,2.0,94,0.00,,---,0.00,VWS V14.01,2013-10-31 13:49:00,
2013-10-31 09:50:00,68.9,67.1,29.88,ENE,68,1.6,1.6,94,0.00,,---,0.00,VWS V14.01,2013-10-31 13:50:00,
2013-10-31 09:51:00,69.1,67.3,29.88,ENE,68,0.0,1.6,94,0.00,,---,0.00,VWS V14.01,2013-10-31 13:51:00,
2013-10-31 09:52:00,76.6,66.5,29.88,NE,45,3.4,3.4,71,0.00,,---,0.00,VWS V14.01,2013-10-31 13:52:00,
2013-10-31 09:53:00,69.4,67.6,29.88,ENE,68,2.2,2.2,94,0.00,,---,0.00,VWS V14.01,2013-10-31 13:53:00,
2013-10-31 09:54:00,69.4,67.6,29.88,ENE,68,0.0,2.2,94,0.00,,---,0.00,VWS V14.01,2013-10-31 13:54:00,
2013-10-31 09:55:00,69.4,67.6,29.88,ENE,68,2.2,2.2,94,0.00,,---,0.00,VWS V14.01,2013-10-31 13:55:00,
2013-10-31 09:56:00,69.6,67.8,29.88,NE,45,2.2,2.2,94,0.00,,---,0.00,VWS V14.01,2013-10-31 13:56:00,
2013-10-31 09:57:00,79.7,68.6,29.88,NNE,22,2.2,2.2,69,0.00,,---,0.00,VWS V14.01,2013-10-31 13:57:00,
2013-10-31 09:58:00,69.6,67.8,29.88,NE,45,0.0,0.9,94,0.00,,---,0.00,VWS V14.01,2013-10-31 13:58:00,
2013-10-31 09:59:00,69.8,68.0,29.88,ENE,68,0.0,1.3,94,0.00,,---,0.00,VWS V14.01,2013-10-31 13:59:00,
2013-10-31 10:00:00,69.8,68.0,29.88,ENE,68,2.0,2.0,94,0.00,,---,0.00,VWS V14.01,2013-10-31 14:00:00,
2013-10-31 10:01:00,69.8,68.0,29.88,ENE,68,1.3,2.5,94,0.00,,---,0.00,VWS V14.01,2013-10-31 14:01:00,
2013-10-31 10:02:00,82.4,69.5,29.88,NE,45,0.0,1.1,65,0.00,,---,0.00,VWS V14.01,2013-10-31 14:02:00,
2013-10-31 10:03:00,69.8,68.0,29.88,ESE,112,2.0,2.2,94,0.00,,---,0.00,VWS V14.01,2013-10-31 14:03:00,
2013-10-31 10:04:00,69.8,68.0,29.88,ESE,112,1.1,2.5,94,0.00,,---,0.00,VWS V14.01,2013-10-31 14:04:00,
2013-10-31 10:05:00,69.8,68.0,29.88,ESE,112,0.0,1.1,94,0.00,,---,0.00,VWS V14.01,2013-10-31 14:05:00,
2013-10-31 10:06:00,70.0,67.9,29.88,East,90,2.9,2.9,93,0.00,,---,0.00,VWS V14.01,2013-10-31 14:06:00,
2013-10-31 10:07:00,83.5,65.6,29.88,ESE,112,6.0,6.0,55,0.00,,---,0.00,VWS V14.01,2013-10-31 14:07:00,
2013-10-31 10:08:00,70.2,68.1,29.88,ESE,112,2.2,2.2,93,0.00,,---,0.00,VWS V14.01,2013-10-31 14:08:00,
2013-10-31 10:09:00,70.3,68.2,29.88,NE,45,1.3,2.2,93,0.00,,---,0.00,VWS V14.01,2013-10-31 14:09:00,
2013-10-31 10:10:00,70.5,68.4,29.88,NE,45,0.0,1.3,93,0.00,,---,0.00,VWS V14.01,2013-10-31 14:10:00,
2013-10-31 10:11:00,70.7,68.6,29.88,ENE,68,1.3,1.3,93,0.00,,---,0.00,VWS V14.01,2013-10-31 14:11:00,
2013-10-31 10:12:00,83.8,63.2,29.88,ESE,112,1.6,3.1,50,0.00,,---,0.00,VWS V14.01,2013-10-31 14:12:00,
2013-10-31 10:13:00,71.1,68.9,29.88,ENE,68,2.7,3.4,93,0.00,,---,0.00,VWS V14.01,2013-10-31 14:13:00,
2013-10-31 10:14:00,71.6,69.5,29.88,NNW,338,2.5,3.1,93,0.00,,---,0.00,VWS V14.01,2013-10-31 14:14:00,
2013-10-31 10:15:00,71.8,69.7,29.88,NNW,338,0.9,2.5,93,0.00,,---,0.00,VWS V14.01,2013-10-31 14:15:00,
2013-10-31 10:16:00,72.0,69.8,29.88,NNW,338,1.6,1.6,93,0.00,,---,0.00,VWS V14.01,2013-10-31 14:16:00,
2013-10-31 10:17:00,85.5,65.3,29.88,East,90,4.0,4.0,51,0.00,,---,0.00,VWS V14.01,2013-10-31 14:17:00,
2013-10-31 10:18:00,72.5,70.4,29.88,SE,135,2.2,2.2,93,0.00,,---,0.00,VWS V14.01,2013-10-31 14:18:00,
2013-10-31 10:19:00,72.7,70.5,29.88,ENE,68,2.0,2.5,93,0.00,,---,0.00,VWS V14.01,2013-10-31 14:19:00,
2013-10-31 10:20:00,72.9,70.4,29.88,ESE,112,3.4,3.4,92,0.00,,---,0.00,VWS V14.01,2013-10-31 14:20:00,
2013-10-31 10:21:00,73.2,70.8,29.88,ESE,112,3.6,3.6,92,0.00,,---,0.00,VWS V14.01,2013-10-31 14:21:00,
2013-10-31 10:22:00,86.9,64.9,29.88,East,90,2.5,2.9,48,0.00,,---,0.00,VWS V14.01,2013-10-31 14:22:00,
2013-10-31 10:23:00,73.4,70.3,29.88,East,90,2.0,3.4,90,0.00,,---,0.00,VWS V14.01,2013-10-31 14:23:00,
2013-10-31 10:24:00,73.4,70.3,29.88,East,90,2.0,2.5,90,0.00,,---,0.00,VWS V14.01,2013-10-31 14:24:00,
2013-10-31 10:25:00,73.4,70.3,29.88,East,90,2.0,2.0,90,0.00,,---,0.00,VWS V14.01,2013-10-31 14:25:00,
2013-10-31 10:26:00,73.6,70.1,29.88,East,90,0.9,3.4,89,0.00,,---,0.00,VWS V14.01,2013-10-31 14:26:00,
2013-10-31 10:27:00,86.9,60.4,29.88,East,90,4.0,4.0,41,0.00,,---,0.00,VWS V14.01,2013-10-31 14:27:00,
2013-10-31 10:28:00,73.6,69.8,29.88,ESE,112,2.7,3.1,88,0.00,,---,0.00,VWS V14.01,2013-10-31 14:28:00,
2013-10-31 10:29:00,73.6,69.8,29.88,East,90,0.9,2.7,88,0.00,,---,0.00,VWS V14.01,2013-10-31 14:29:00,
2013-10-31 10:30:00,73.6,69.1,29.88,ENE,68,1.1,1.6,86,0.00,,---,0.00,VWS V14.01,2013-10-31 14:30:00,
2013-10-31 10:31:00,73.8,69.0,29.88,ENE,68,2.0,3.4,85,0.00,,---,0.00,VWS V14.01,2013-10-31 14:31:00,
2013-10-31 10:32:00,87.6,61.0,29.88,East,90,3.6,8.1,41,0.00,,---,0.00,VWS V14.01,2013-10-31 14:32:00,
2013-10-31 10:33:00,73.9,68.8,29.88,East,90,1.6,2.9,84,0.00,,---,0.00,VWS V14.01,2013-10-31 14:33:00,
2013-10-31 10:34:00,73.9,68.5,29.88,East,90,2.2,2.9,83,0.00,,---,0.00,VWS V14.01,2013-10-31 14:34:00,
2013-10-31 10:35:00,73.9,68.5,29.88,ESE,112,1.3,2.7,83,0.00,,---,0.00,VWS V14.01,2013-10-31 14:35:00,
2013-10-31 10:36:00,74.1,67.9,29.88,NE,45,1.6,2.5,81,0.00,,---,0.00,VWS V14.01,2013-10-31 14:36:00,
2013-10-31 10:37:00,87.1,59.8,29.88,East,90,5.8,5.8,40,0.00,,---,0.00,VWS V14.01,2013-10-31 14:37:00,
2013-10-31 10:38:00,74.3,68.1,29.88,East,90,1.6,4.0,81,0.00,,---,0.00,VWS V14.01,2013-10-31 14:38:00,
2013-10-31 10:39:00,74.3,67.7,29.88,East,90,1.6,1.6,80,0.00,,---,0.00,VWS V14.01,2013-10-31 14:39:00,
2013-10-31 10:40:00,74.5,67.9,29.88,East,90,2.5,2.5,80,0.00,,---,0.00,VWS V14.01,2013-10-31 14:40:00,
2013-10-31 10:41:00,74.7,67.7,29.88,East,90,4.9,4.9,79,0.00,,---,0.00,VWS V14.01,2013-10-31 14:41:00,
2013-10-31 10:42:00,87.1,59.2,29.88,ESE,112,5.4,6.3,39,0.00,,---,0.00,VWS V14.01,2013-10-31 14:42:00,
2013-10-31 10:43:00,74.7,67.3,29.88,ENE,68,4.3,4.3,78,0.00,,---,0.00,VWS V14.01,2013-10-31 14:43:00,
2013-10-31 10:44:00,74.8,65.2,29.88,ENE,68,1.1,4.3,72,0.00,,---,0.00,VWS V14.01,2013-10-31 14:44:00,
2013-10-31 10:45:00,74.8,65.2,29.88,ESE,112,2.5,2.5,72,0.00,,---,0.00,VWS V14.01,2013-10-31 14:45:00,
2013-10-31 10:46:00,75.2,66.0,29.88,East,90,2.0,2.5,73,0.00,,---,0.00,VWS V14.01,2013-10-31 14:46:00,
2013-10-31 10:47:00,86.4,59.2,29.88,ENE,68,2.7,4.0,40,0.00,,---,0.00,VWS V14.01,2013-10-31 14:47:00,
2013-10-31 10:48:00,75.2,64.8,29.88,SSE,158,3.1,5.8,70,0.00,,---,0.00,VWS V14.01,2013-10-31 14:48:00,
2013-10-31 10:49:00,75.4,64.9,29.88,ENE,68,3.1,4.0,70,0.00,,---,0.00,VWS V14.01,2013-10-31 14:49:00,
2013-10-31 10:50:00,75.7,65.3,29.88,East,90,2.5,3.1,70,0.00,,---,0.00,VWS V14.01,2013-10-31 14:50:00,
2013-10-31 10:51:00,76.1,66.0,29.88,East,90,2.7,3.1,71,0.00,,---,0.00,VWS V14.01,2013-10-31 14:51:00,
2013-10-31 10:52:00,88.5,60.4,29.88,East,90,6.0,6.0,39,0.00,,---,0.00,VWS V14.01,2013-10-31 14:52:00,
2013-10-31 10:53:00,76.6,66.5,29.88,ESE,112,2.2,3.4,71,0.00,,---,0.00,VWS V14.01,2013-10-31 14:53:00,
2013-10-31 10:54:00,77.4,66.8,29.88,ESE,112,0.9,2.2,70,0.00,,---,0.00,VWS V14.01,2013-10-31 14:54:00,
2013-10-31 10:55:00,78.1,67.5,29.88,East,90,2.9,2.9,70,0.00,,---,0.00,VWS V14.01,2013-10-31 14:55:00,
2013-10-31 10:56:00,78.1,67.5,29.88,East,90,0.9,2.9,70,0.00,,---,0.00,VWS V14.01,2013-10-31 14:56:00,
2013-10-31 10:57:00,86.5,57.9,29.88,East,90,3.6,4.9,38,0.00,,---,0.00,VWS V14.01,2013-10-31 14:57:00,
2013-10-31 10:58:00,79.7,68.6,29.88,NNE,22,1.1,2.2,69,0.00,,---,0.00,VWS V14.01,2013-10-31 14:58:00,
2013-10-31 10:59:00,80.8,69.2,29.88,East,90,2.9,2.9,68,0.00,,---,0.00,VWS V14.01,2013-10-31 14:59:00,
2013-10-31 11:00:00,81.3,69.3,29.88,East,90,1.6,2.9,67,0.00,,---,0.00,VWS V14.01,2013-10-31 15:00:00,
2013-10-31 11:01:00,81.3,69.3,29.88,NE,45,4.0,4.0,67,0.00,,---,0.00,VWS V14.01,2013-10-31 15:01:00,
2013-10-31 11:02:00,86.2,59.0,29.88,NE,45,3.4,4.9,40,0.00,,---,0.00,VWS V14.01,2013-10-31 15:02:00,
2013-10-31 11:03:00,82.9,69.5,29.88,NE,45,0.9,1.3,64,0.00,,---,0.00,VWS V14.01,2013-10-31 15:03:00,
2013-10-31 11:04:00,82.9,67.6,29.88,East,90,3.1,4.0,60,0.00,,---,0.00,VWS V14.01,2013-10-31 15:04:00,
2013-10-31 11:05:00,83.3,68.5,29.88,East,90,2.5,3.6,61,0.00,,---,0.00,VWS V14.01,2013-10-31 15:05:00,
2013-10-31 11:06:00,83.5,67.2,29.88,ESE,112,2.5,4.9,58,0.00,,---,0.00,VWS V14.01,2013-10-31 15:06:00,
2013-10-31 11:07:00,82.9,56.8,29.88,East,90,6.3,6.3,41,0.00,,---,0.00,VWS V14.01,2013-10-31 15:07:00,
2013-10-31 11:08:00,83.5,62.9,29.88,ESE,112,4.0,6.0,50,0.00,,---,0.00,VWS V14.01,2013-10-31 15:08:00,
2013-10-31 11:09:00,83.5,64.0,29.88,ESE,112,3.1,4.3,52,0.00,,---,0.00,VWS V14.01,2013-10-31 15:09:00,
2013-10-31 11:10:00,83.3,61.6,29.88,ESE,112,3.4,4.0,48,0.00,,---,0.00,VWS V14.01,2013-10-31 15:10:00,
2013-10-31 11:11:00,83.5,62.9,29.88,ESE,112,1.6,3.6,50,0.00,,---,0.00,VWS V14.01,2013-10-31 15:11:00,
2013-10-31 11:12:00,86.0,58.9,29.88,East,90,3.6,6.3,40,0.00,,---,0.00,VWS V14.01,2013-10-31 15:12:00,
2013-10-31 11:13:00,83.8,63.2,29.88,ESE,112,1.1,3.1,50,0.00,,---,0.00,VWS V14.01,2013-10-31 15:13:00,
2013-10-31 11:14:00,84.6,63.9,29.88,East,90,3.1,4.0,50,0.00,,---,0.00,VWS V14.01,2013-10-31 15:14:00,
2013-10-31 11:15:00,84.7,64.6,29.88,NE,45,2.5,3.8,51,0.00,,---,0.00,VWS V14.01,2013-10-31 15:15:00,
2013-10-31 11:16:00,85.1,64.4,29.88,NE,45,0.0,2.5,50,0.00,,---,0.00,VWS V14.01,2013-10-31 15:16:00,
2013-10-31 11:17:00,84.9,57.9,29.88,NNW,338,2.9,4.3,40,0.00,,---,0.00,VWS V14.01,2013-10-31 15:17:00,
2013-10-31 11:18:00,86.0,65.8,29.88,ESE,112,2.7,4.0,51,0.00,,---,0.00,VWS V14.01,2013-10-31 15:18:00,
2013-10-31 11:19:00,86.4,65.5,29.88,ENE,68,1.3,2.9,50,0.00,,---,0.00,VWS V14.01,2013-10-31 15:19:00,
2013-10-31 11:20:00,86.5,65.1,29.88,SE,135,3.8,4.3,49,0.00,,---,0.00,VWS V14.01,2013-10-31 15:20:00,
2013-10-31 11:21:00,86.7,64.7,29.88,ENE,68,1.6,3.8,48,0.00,,---,0.00,VWS V14.01,2013-10-31 15:21:00,
2013-10-31 11:22:00,86.0,57.5,29.85,East,90,4.3,6.3,38,0.00,,---,0.00,VWS V14.01,2013-10-31 15:22:00,
2013-10-31 11:23:00,87.4,65.4,29.88,East,90,3.4,3.4,48,0.00,,---,0.00,VWS V14.01,2013-10-31 15:23:00,
2013-10-31 11:24:00,87.6,65.5,29.88,East,90,1.3,3.4,48,0.00,,---,0.00,VWS V14.01,2013-10-31 15:24:00,
2013-10-31 11:26:00,87.4,60.9,29.88,ESE,112,6.0,6.5,41,0.00,,---,0.00,VWS V14.01,2013-10-31 15:26:00,
2013-10-31 11:27:00,85.6,58.6,29.85,ENE,68,5.4,5.4,40,0.00,,---,0.00,VWS V14.01,2013-10-31 15:27:00,
2013-10-31 11:28:00,86.9,60.4,29.88,East,90,2.9,4.0,41,0.00,,---,0.00,VWS V14.01,2013-10-31 15:28:00,
2013-10-31 11:29:00,86.9,61.7,29.88,East,90,3.6,3.6,43,0.00,,---,0.00,VWS V14.01,2013-10-31 15:29:00,
2013-10-31 11:30:00,87.1,61.9,29.88,North,0,3.1,4.3,43,0.00,,---,0.00,VWS V14.01,2013-10-31 15:30:00,
2013-10-31 11:31:00,87.3,61.4,29.88,NE,45,3.6,4.7,42,0.00,,---,0.00,VWS V14.01,2013-10-31 15:31:00,
2013-10-31 11:32:00,87.4,59.5,29.85,East,90,3.4,3.4,39,0.00,,---,0.00,VWS V14.01,2013-10-31 15:32:00,
2013-10-31 11:33:00,87.6,61.7,29.88,East,90,8.5,8.5,42,0.00,,---,0.00,VWS V14.01,2013-10-31 15:33:00,
2013-10-31 11:34:00,87.6,61.7,29.88,SE,135,7.2,8.5,42,0.00,,---,0.00,VWS V14.01,2013-10-31 15:34:00,
2013-10-31 11:35:00,87.1,59.2,29.88,East,90,3.8,10.3,39,0.00,,---,0.00,VWS V14.01,2013-10-31 15:35:00,
2013-10-31 11:36:00,87.1,59.2,29.88,ENE,68,5.6,9.8,39,0.00,,---,0.00,VWS V14.01,2013-10-31 15:36:00,
2013-10-31 11:37:00,89.2,60.3,29.85,East,90,3.6,4.3,38,0.00,,---,0.00,VWS V14.01,2013-10-31 15:37:00,
2013-10-31 11:38:00,87.1,59.8,29.88,ENE,68,4.7,8.1,40,0.00,,---,0.00,VWS V14.01,2013-10-31 15:38:00,
2013-10-31 11:39:00,87.1,59.8,29.88,East,90,2.7,6.3,40,0.00,,---,0.00,VWS V14.01,2013-10-31 15:39:00,
2013-10-31 11:40:00,87.3,60.0,29.88,East,90,4.3,4.3,40,0.00,,---,0.00,VWS V14.01,2013-10-31 15:40:00,
2013-10-31 11:41:00,87.4,60.9,29.88,East,90,5.6,5.6,41,0.00,,---,0.00,VWS V14.01,2013-10-31 15:41:00,
2013-10-31 11:42:00,87.3,56.3,29.85,NE,45,5.6,5.6,35,0.00,,---,0.00,VWS V14.01,2013-10-31 15:42:00,
2013-10-31 11:43:00,87.1,59.2,29.88,East,90,3.1,6.3,39,0.00,,---,0.00,VWS V14.01,2013-10-31 15:43:00,
2013-10-31 11:45:00,85.6,58.6,29.88,SE,135,5.4,6.3,40,0.00,,---,0.00,VWS V14.01,2013-10-31 15:45:00,
2013-10-31 11:46:00,86.0,58.9,29.88,NNE,22,3.6,6.0,40,0.00,,---,0.00,VWS V14.01,2013-10-31 15:46:00,
2013-10-31 11:47:00,88.2,57.1,29.85,SE,135,10.7,10.7,35,0.00,,---,0.00,VWS V14.01,2013-10-31 15:47:00,
2013-10-31 11:48:00,86.7,58.8,29.88,East,90,6.3,6.3,39,0.00,,---,0.00,VWS V14.01,2013-10-31 15:48:00,
2013-10-31 11:49:00,86.9,59.7,29.88,ESE,112,2.9,6.3,40,0.00,,---,0.00,VWS V14.01,2013-10-31 15:49:00,
2013-10-31 11:50:00,87.1,59.8,29.88,East,90,2.9,3.8,40,0.00,,---,0.00,VWS V14.01,2013-10-31 15:50:00,
2013-10-31 11:51:00,87.8,60.5,29.88,SE,135,2.9,6.3,40,0.00,,---,0.00,VWS V14.01,2013-10-31 15:51:00,
2013-10-31 11:52:00,88.2,56.3,29.85,ESE,112,3.6,3.8,34,0.00,,---,0.00,VWS V14.01,2013-10-31 15:52:00,
2013-10-31 11:53:00,88.2,59.4,29.88,South,180,4.0,6.0,38,0.00,,---,0.00,VWS V14.01,2013-10-31 15:53:00,
2013-10-31 11:54:00,88.3,60.3,29.88,NE,45,6.3,6.5,39,0.00,,---,0.00,VWS V14.01,2013-10-31 15:54:00,
2013-10-31 11:55:00,88.3,59.5,29.88,SW,225,1.3,6.3,38,0.00,,---,0.00,VWS V14.01,2013-10-31 15:55:00,
2013-10-31 11:56:00,87.6,59.6,29.88,NNE,22,4.0,7.8,39,0.00,,---,0.00,VWS V14.01,2013-10-31 15:56:00,
2013-10-31 11:57:00,86.4,56.3,29.85,SE,135,2.5,3.8,36,0.00,,---,0.00,VWS V14.01,2013-10-31 15:57:00,
2013-10-31 11:58:00,86.5,57.9,29.88,East,90,3.6,4.9,38,0.00,,---,0.00,VWS V14.01,2013-10-31 15:58:00,
2013-10-31 11:59:00,86.4,58.5,29.88,NE,45,4.3,5.4,39,0.00,,---,0.00,VWS V14.01,2013-10-31 15:59:00,
2013-10-31 12:00:00,86.2,59.0,29.88,ENE,68,3.8,4.7,40,0.00,,---,0.00,VWS V14.01,2013-10-31 16:00:00,
2013-10-31 12:01:00,86.2,59.0,29.88,East,90,4.9,5.6,40,0.00,,---,0.00,VWS V14.01,2013-10-31 16:01:00,
2013-10-31 12:02:00,84.9,55.8,29.85,East,90,2.7,2.7,37,0.00,,---,0.00,VWS V14.01,2013-10-31 16:02:00,
2013-10-31 12:03:00,84.0,57.1,29.88,ESE,112,6.0,8.7,40,0.00,,---,0.00,VWS V14.01,2013-10-31 16:03:00,
2013-10-31 12:04:00,83.8,57.0,29.88,East,90,3.8,6.3,40,0.00,,---,0.00,VWS V14.01,2013-10-31 16:04:00,
2013-10-31 12:05:00,83.3,56.5,29.88,ESE,112,3.1,10.7,40,0.00,,---,0.00,VWS V14.01,2013-10-31 16:05:00,
2013-10-31 12:06:00,83.1,56.3,29.88,East,90,6.3,6.5,40,0.00,,---,0.00,VWS V14.01,2013-10-31 16:06:00,
2013-10-31 12:07:00,84.6,55.5,29.85,ENE,68,3.8,6.0,37,0.00,,---,0.00,VWS V14.01,2013-10-31 16:07:00,
2013-10-31 12:08:00,83.1,57.0,29.88,ENE,68,3.8,6.3,41,0.00,,---,0.00,VWS V14.01,2013-10-31 16:08:00,
2013-10-31 12:09:00,83.7,57.5,29.88,ENE,68,7.4,7.4,41,0.00,,---,0.00,VWS V14.01,2013-10-31 16:09:00,
2013-10-31 12:10:00,84.7,58.5,29.88,East,90,5.8,7.4,41,0.00,,---,0.00,VWS V14.01,2013-10-31 16:10:00,
2013-10-31 12:11:00,85.5,58.4,29.88,NE,45,6.5,7.8,40,0.00,,---,0.00,VWS V14.01,2013-10-31 16:11:00,
2013-10-31 12:12:00,87.3,58.6,29.85,North,0,5.6,5.6,38,0.00,,---,0.00,VWS V14.01,2013-10-31 16:12:00,
2013-10-31 12:13:00,86.0,58.9,29.88,East,90,10.5,10.5,40,0.00,,---,0.00,VWS V14.01,2013-10-31 16:13:00,
2013-10-31 12:14:00,85.3,57.5,29.88,East,90,7.6,10.5,39,0.00,,---,0.00,VWS V14.01,2013-10-31 16:14:00,
2013-10-31 12:15:00,84.6,56.9,29.88,ENE,68,4.9,7.8,39,0.00,,---,0.00,VWS V14.01,2013-10-31 16:15:00,
2013-10-31 12:16:00,84.9,57.9,29.88,North,0,5.6,6.7,40,0.00,,---,0.00,VWS V14.01,2013-10-31 16:16:00,
2013-10-31 12:17:00,87.1,55.3,29.85,East,90,5.4,5.8,34,0.00,,---,0.00,VWS V14.01,2013-10-31 16:17:00,
2013-10-31 12:18:00,84.7,57.8,29.88,NNE,22,3.8,4.3,40,0.00,,---,0.00,VWS V14.01,2013-10-31 16:18:00,
2013-10-31 12:19:00,85.5,58.4,29.88,SE,135,7.6,7.6,40,0.00,,---,0.00,VWS V14.01,2013-10-31 16:19:00,
2013-10-31 12:20:00,86.0,58.9,29.88,SE,135,6.0,7.6,40,0.00,,---,0.00,VWS V14.01,2013-10-31 16:20:00,
2013-10-31 12:21:00,86.0,58.9,29.85,East,90,6.7,6.7,40,0.00,,---,0.00,VWS V14.01,2013-10-31 16:21:00,
2013-10-31 12:22:00,84.9,55.0,29.85,ESE,112,4.9,4.9,36,0.00,,---,0.00,VWS V14.01,2013-10-31 16:22:00,
2013-10-31 12:23:00,85.5,57.7,29.85,ESE,112,3.6,6.3,39,0.00,,---,0.00,VWS V14.01,2013-10-31 16:23:00,
2013-10-31 12:24:00,85.5,57.7,29.85,East,90,3.8,6.5,39,0.00,,---,0.00,VWS V14.01,2013-10-31 16:24:00,
2013-10-31 12:25:00,84.6,56.9,29.85,East,90,3.6,5.4,39,0.00,,---,0.00,VWS V14.01,2013-10-31 16:25:00,
2013-10-31 12:26:00,84.6,57.6,29.85,ESE,112,2.5,6.3,40,0.00,,---,0.00,VWS V14.01,2013-10-31 16:26:00,
2013-10-31 12:27:00,84.2,55.1,29.85,SE,135,6.3,8.1,37,0.00,,---,0.00,VWS V14.01,2013-10-31 16:27:00,
2013-10-31 12:28:00,85.6,58.6,29.85,East,90,3.4,5.4,40,0.00,,---,0.00,VWS V14.01,2013-10-31 16:28:00,
2013-10-31 12:29:00,85.6,58.6,29.85,SW,225,2.5,4.0,40,0.00,,---,0.00,VWS V14.01,2013-10-31 16:29:00,
2013-10-31 12:30:00,86.9,59.0,29.85,East,90,3.4,3.6,39,0.00,,---,0.00,VWS V14.01,2013-10-31 16:30:00,
2013-10-31 12:31:00,87.4,59.5,29.85,NE,45,2.7,6.0,39,0.00,,---,0.00,VWS V14.01,2013-10-31 16:31:00,
2013-10-31 12:32:00,85.5,57.0,29.85,East,90,4.9,4.9,38,0.00,,---,0.00,VWS V14.01,2013-10-31 16:32:00,
2013-10-31 12:33:00,88.9,60.0,29.85,ENE,68,3.4,3.6,38,0.00,,---,0.00,VWS V14.01,2013-10-31 16:33:00,
2013-10-31 12:34:00,89.1,60.2,29.85,ESE,112,6.0,6.0,38,0.00,,---,0.00,VWS V14.01,2013-10-31 16:34:00,
2013-10-31 12:35:00,89.1,58.7,29.85,ESE,112,3.8,6.0,36,0.00,,---,0.00,VWS V14.01,2013-10-31 16:35:00,
2013-10-31 12:36:00,89.2,60.3,29.85,NE,45,3.4,4.5,38,0.00,,---,0.00,VWS V14.01,2013-10-31 16:36:00,
2013-10-31 12:37:00,87.4,56.5,29.85,NE,45,5.8,5.8,35,0.00,,---,0.00,VWS V14.01,2013-10-31 16:37:00,
2013-10-31 12:38:00,90.7,61.6,29.85,ENE,68,2.9,4.3,38,0.00,,---,0.00,VWS V14.01,2013-10-31 16:38:00,
2013-10-31 12:39:00,90.7,60.1,29.85,NE,45,3.1,6.3,36,0.00,,---,0.00,VWS V14.01,2013-10-31 16:39:00,
2013-10-31 12:40:00,90.0,59.5,29.85,ESE,112,4.9,4.9,36,0.00,,---,0.00,VWS V14.01,2013-10-31 16:40:00,
2013-10-31 12:41:00,89.1,57.1,29.85,ESE,112,5.4,5.4,34,0.00,,---,0.00,VWS V14.01,2013-10-31 16:41:00,
2013-10-31 12:42:00,88.3,56.4,29.85,East,90,6.5,6.5,34,0.00,,---,0.00,VWS V14.01,2013-10-31 16:42:00,
2013-10-31 12:43:00,87.3,56.3,29.85,East,90,6.3,6.3,35,0.00,,---,0.00,VWS V14.01,2013-10-31 16:43:00,
2013-10-31 12:44:00,86.5,54.9,29.85,East,90,3.6,6.3,34,0.00,,---,0.00,VWS V14.01,2013-10-31 16:44:00,
2013-10-31 12:45:00,87.4,57.2,29.85,East,90,3.4,6.3,36,0.00,,---,0.00,VWS V14.01,2013-10-31 16:45:00,
2013-10-31 12:46:00,88.2,57.1,29.85,East,90,5.4,5.4,35,0.00,,---,0.00,VWS V14.01,2013-10-31 16:46:00,
2013-10-31 12:47:00,86.9,55.2,29.85,ESE,112,6.7,6.7,34,0.00,,---,0.00,VWS V14.01,2013-10-31 16:47:00,
2013-10-31 12:48:00,88.2,56.3,29.85,East,90,5.8,10.7,34,0.00,,---,0.00,VWS V14.01,2013-10-31 16:48:00,
2013-10-31 12:49:00,88.3,57.2,29.85,East,90,4.9,7.2,35,0.00,,---,0.00,VWS V14.01,2013-10-31 16:49:00,
2013-10-31 12:50:00,88.2,56.3,29.85,ESE,112,6.3,9.6,34,0.00,,---,0.00,VWS V14.01,2013-10-31 16:50:00,
2013-10-31 12:51:00,88.3,56.4,29.85,ESE,112,4.9,6.3,34,0.00,,---,0.00,VWS V14.01,2013-10-31 16:51:00,
2013-10-31 12:52:00,87.1,54.5,29.82,South,180,7.6,8.5,33,0.00,,---,0.00,VWS V14.01,2013-10-31 16:52:00,
2013-10-31 12:53:00,87.6,56.6,29.85,East,90,3.1,3.8,35,0.00,,---,0.00,VWS V14.01,2013-10-31 16:53:00,
2013-10-31 12:54:00,87.4,56.5,29.85,NE,45,3.4,5.4,35,0.00,,---,0.00,VWS V14.01,2013-10-31 16:54:00,
2013-10-31 12:55:00,87.1,56.9,29.85,East,90,3.8,4.3,36,0.00,,---,0.00,VWS V14.01,2013-10-31 16:55:00,
2013-10-31 12:56:00,86.9,56.0,29.85,NW,315,4.9,4.9,35,0.00,,---,0.00,VWS V14.01,2013-10-31 16:56:00,
2013-10-31 12:57:00,85.3,53.8,29.82,ESE,112,5.4,5.6,34,0.00,,---,0.00,VWS V14.01,2013-10-31 16:57:00,
2013-10-31 12:58:00,86.4,56.3,29.85,East,90,4.3,4.3,36,0.00,,---,0.00,VWS V14.01,2013-10-31 16:58:00,
2013-10-31 12:59:00,85.8,55.8,29.85,ESE,112,3.6,5.4,36,0.00,,---,0.00,VWS V14.01,2013-10-31 16:59:00,
2013-10-31 13:00:00,85.1,55.9,29.85,ESE,112,6.0,7.2,37,0.00,,---,0.00,VWS V14.01,2013-10-31 17:00:00,
2013-10-31 13:01:00,84.9,55.8,29.85,NE,45,4.9,6.9,37,0.00,,---,0.00,VWS V14.01,2013-10-31 17:01:00,
2013-10-31 13:02:00,88.0,55.3,29.82,East,90,3.1,5.6,33,0.00,,---,0.00,VWS V14.01,2013-10-31 17:02:00,
2013-10-31 13:03:00,85.1,56.7,29.85,East,90,3.8,4.9,38,0.00,,---,0.00,VWS V14.01,2013-10-31 17:03:00,
2013-10-31 13:04:00,84.7,54.9,29.85,East,90,3.4,5.6,36,0.00,,---,0.00,VWS V14.01,2013-10-31 17:04:00,
2013-10-31 13:05:00,84.7,54.9,29.85,SE,135,5.4,5.4,36,0.00,,---,0.00,VWS V14.01,2013-10-31 17:05:00,
2013-10-31 13:06:00,84.7,54.9,29.85,East,90,3.4,5.4,36,0.00,,---,0.00,VWS V14.01,2013-10-31 17:06:00,
2013-10-31 13:07:00,88.5,54.9,29.82,ESE,112,8.1,8.5,32,0.00,,---,0.00,VWS V14.01,2013-10-31 17:07:00,
2013-10-31 13:08:00,84.9,55.8,29.85,North,0,6.0,6.0,37,0.00,,---,0.00,VWS V14.01,2013-10-31 17:08:00,
2013-10-31 13:09:00,84.9,55.8,29.85,ESE,112,3.4,6.0,37,0.00,,---,0.00,VWS V14.01,2013-10-31 17:09:00,
2013-10-31 13:10:00,84.9,55.8,29.85,NNW,338,1.3,6.0,37,0.00,,---,0.00,VWS V14.01,2013-10-31 17:10:00,
2013-10-31 13:11:00,86.9,58.3,29.85,North,0,3.4,4.0,38,0.00,,---,0.00,VWS V14.01,2013-10-31 17:11:00,
2013-10-31 13:12:00,88.5,56.6,29.82,ENE,68,3.6,7.2,34,0.00,,---,0.00,VWS V14.01,2013-10-31 17:12:00,
2013-10-31 13:13:00,87.3,58.6,29.85,ESE,112,4.9,6.0,38,0.00,,---,0.00,VWS V14.01,2013-10-31 17:13:00,
2013-10-31 13:14:00,88.5,59.7,29.85,East,90,3.6,4.9,38,0.00,,---,0.00,VWS V14.01,2013-10-31 17:14:00,
2013-10-31 13:15:00,88.7,57.6,29.85,SE,135,3.6,5.4,35,0.00,,---,0.00,VWS V14.01,2013-10-31 17:15:00,
2013-10-31 13:16:00,87.8,55.2,29.85,East,90,6.9,9.8,33,0.00,,---,0.00,VWS V14.01,2013-10-31 17:16:00,
2013-10-31 13:17:00,90.0,57.0,29.82,ESE,112,3.1,3.1,33,0.00,,---,0.00,VWS V14.01,2013-10-31 17:17:00,
2013-10-31 13:18:00,86.5,54.9,29.85,SE,135,4.0,5.8,34,0.00,,---,0.00,VWS V14.01,2013-10-31 17:18:00,
2013-10-31 13:19:00,85.8,55.0,29.85,North,0,4.3,4.3,35,0.00,,---,0.00,VWS V14.01,2013-10-31 17:19:00,
2013-10-31 13:20:00,85.5,54.7,29.85,ESE,112,5.4,5.4,35,0.00,,---,0.00,VWS V14.01,2013-10-31 17:20:00,
2013-10-31 13:21:00,85.1,55.2,29.85,East,90,2.9,6.0,36,0.00,,---,0.00,VWS V14.01,2013-10-31 17:21:00,
2013-10-31 13:22:00,89.8,56.0,29.82,East,90,4.3,4.3,32,0.00,,---,0.00,VWS V14.01,2013-10-31 17:22:00,
2013-10-31 13:23:00,84.9,55.0,29.85,East,90,6.5,6.5,36,0.00,,---,0.00,VWS V14.01,2013-10-31 17:23:00,
2013-10-31 13:24:00,84.0,55.0,29.85,East,90,3.4,6.5,37,0.00,,---,0.00,VWS V14.01,2013-10-31 17:24:00,
2013-10-31 13:25:00,84.2,54.4,29.85,East,90,5.4,9.6,36,0.00,,---,0.00,VWS V14.01,2013-10-31 17:25:00,
2013-10-31 13:26:00,84.2,55.1,29.85,East,90,2.0,6.5,37,0.00,,---,0.00,VWS V14.01,2013-10-31 17:26:00,
2013-10-31 13:27:00,88.7,55.9,29.82,ESE,112,5.4,5.4,33,0.00,,---,0.00,VWS V14.01,2013-10-31 17:27:00,
2013-10-31 13:28:00,84.2,55.1,29.85,East,90,5.4,8.1,37,0.00,,---,0.00,VWS V14.01,2013-10-31 17:28:00,
2013-10-31 13:29:00,84.0,55.0,29.85,East,90,3.8,5.8,37,0.00,,---,0.00,VWS V14.01,2013-10-31 17:29:00,
2013-10-31 13:30:00,84.2,55.1,29.85,ENE,68,3.4,5.4,37,0.00,,---,0.00,VWS V14.01,2013-10-31 17:30:00,
2013-10-31 13:31:00,84.9,55.8,29.85,ESE,112,4.7,8.5,37,0.00,,---,0.00,VWS V14.01,2013-10-31 17:31:00,
2013-10-31 13:32:00,88.0,55.3,29.82,ESE,112,4.3,4.3,33,0.00,,---,0.00,VWS V14.01,2013-10-31 17:32:00,
2013-10-31 13:33:00,86.2,56.9,29.85,ESE,112,6.5,6.5,37,0.00,,---,0.00,VWS V14.01,2013-10-31 17:33:00,
2013-10-31 13:34:00,86.9,56.8,29.85,ESE,112,4.9,6.5,36,0.00,,---,0.00,VWS V14.01,2013-10-31 17:34:00,
2013-10-31 13:35:00,87.3,57.1,29.85,ENE,68,3.1,5.6,36,0.00,,---,0.00,VWS V14.01,2013-10-31 17:35:00,
2013-10-31 13:36:00,87.3,56.3,29.85,East,90,3.4,6.0,35,0.00,,---,0.00,VWS V14.01,2013-10-31 17:36:00,
2013-10-31 13:37:00,90.1,56.3,29.79,ESE,112,5.4,5.4,32,0.00,,---,0.00,VWS V14.01,2013-10-31 17:37:00,
2013-10-31 13:38:00,87.6,57.4,29.85,ESE,112,4.3,5.8,36,0.00,,---,0.00,VWS V14.01,2013-10-31 17:38:00,
2013-10-31 13:39:00,87.6,55.8,29.85,ESE,112,9.6,9.6,34,0.00,,---,0.00,VWS V14.01,2013-10-31 17:39:00,
2013-10-31 13:40:00,87.8,56.0,29.85,East,90,3.6,9.6,34,0.00,,---,0.00,VWS V14.01,2013-10-31 17:40:00,
2013-10-31 13:41:00,88.2,57.1,29.85,NNE,22,3.4,5.6,35,0.00,,---,0.00,VWS V14.01,2013-10-31 17:41:00,
2013-10-31 13:42:00,90.1,55.5,29.79,SE,135,2.7,3.6,31,0.00,,---,0.00,VWS V14.01,2013-10-31 17:42:00,
2013-10-31 13:43:00,88.3,56.4,29.85,ENE,68,5.6,7.4,34,0.00,,---,0.00,VWS V14.01,2013-10-31 17:43:00,
2013-10-31 13:44:00,87.6,55.8,29.85,ESE,112,5.4,5.6,34,0.00,,---,0.00,VWS V14.01,2013-10-31 17:44:00,
2013-10-31 13:45:00,87.6,55.8,29.85,East,90,8.7,8.7,34,0.00,,---,0.00,VWS V14.01,2013-10-31 17:45:00,
2013-10-31 13:46:00,87.6,55.8,29.85,SE,135,7.8,9.8,34,0.00,,---,0.00,VWS V14.01,2013-10-31 17:46:00,
2013-10-31 13:47:00,87.1,53.7,29.79,ESE,112,4.0,4.0,32,0.00,,---,0.00,VWS V14.01,2013-10-31 17:47:00,
2013-10-31 13:48:00,86.9,55.2,29.85,East,90,6.0,6.7,34,0.00,,---,0.00,VWS V14.01,2013-10-31 17:48:00,
2013-10-31 13:49:00,87.6,56.6,29.85,East,90,4.7,6.9,35,0.00,,---,0.00,VWS V14.01,2013-10-31 17:49:00,
2013-10-31 13:50:00,88.0,56.1,29.85,ESE,112,6.0,7.6,34,0.00,,---,0.00,VWS V14.01,2013-10-31 17:50:00,
2013-10-31 13:51:00,87.6,55.8,29.82,ESE,112,5.4,7.2,34,0.00,,---,0.00,VWS V14.01,2013-10-31 17:51:00,
2013-10-31 13:52:00,86.7,54.2,29.79,ESE,112,4.7,6.5,33,0.00,,---,0.00,VWS V14.01,2013-10-31 17:52:00,
2013-10-31 13:53:00,85.8,54.2,29.82,East,90,6.0,8.5,34,0.00,,---,0.00,VWS V14.01,2013-10-31 17:53:00,
2013-10-31 13:54:00,85.3,53.8,29.82,NE,45,5.4,6.5,34,0.00,,---,0.00,VWS V14.01,2013-10-31 17:54:00,
2013-10-31 13:55:00,85.1,53.6,29.82,East,90,4.3,6.0,34,0.00,,---,0.00,VWS V14.01,2013-10-31 17:55:00,
2013-10-31 13:56:00,85.1,53.6,29.82,ESE,112,4.9,7.2,34,0.00,,---,0.00,VWS V14.01,2013-10-31 17:56:00,
2013-10-31 13:57:00,87.8,55.2,29.79,ESE,112,2.5,4.7,33,0.00,,---,0.00,VWS V14.01,2013-10-31 17:57:00,
2013-10-31 13:58:00,86.0,55.2,29.82,ENE,68,2.7,5.6,35,0.00,,---,0.00,VWS V14.01,2013-10-31 17:58:00,
2013-10-31 13:59:00,86.9,56.8,29.82,East,90,7.2,7.2,36,0.00,,---,0.00,VWS V14.01,2013-10-31 17:59:00,
2013-10-31 14:00:00,87.1,55.3,29.82,ENE,68,5.8,9.8,34,0.00,,---,0.00,VWS V14.01,2013-10-31 18:00:00,
2013-10-31 14:01:00,87.6,55.8,29.82,SSE,158,4.0,9.8,34,0.00,,---,0.00,VWS V14.01,2013-10-31 18:01:00,
2013-10-31 14:02:00,86.2,54.5,29.79,South,180,2.0,2.0,34,0.00,,---,0.00,VWS V14.01,2013-10-31 18:02:00,
2013-10-31 14:03:00,88.5,55.8,29.82,East,90,3.6,5.6,33,0.00,,---,0.00,VWS V14.01,2013-10-31 18:03:00,
2013-10-31 14:05:00,88.7,55.9,29.82,SE,135,2.5,4.9,33,0.00,,---,0.00,VWS V14.01,2013-10-31 18:05:00,
2013-10-31 14:06:00,88.7,55.9,29.82,SE,135,4.3,4.3,33,0.00,,---,0.00,VWS V14.01,2013-10-31 18:06:00,
2013-10-31 14:07:00,86.4,54.7,29.79,ESE,112,5.6,6.0,34,0.00,,---,0.00,VWS V14.01,2013-10-31 18:07:00,
2013-10-31 14:08:00,88.0,55.3,29.82,ENE,68,3.4,8.7,33,0.00,,---,0.00,VWS V14.01,2013-10-31 18:08:00,
2013-10-31 14:09:00,87.6,55.0,29.82,East,90,4.7,5.6,33,0.00,,---,0.00,VWS V14.01,2013-10-31 18:09:00,
2013-10-31 14:10:00,87.4,55.7,29.82,East,90,3.4,4.7,34,0.00,,---,0.00,VWS V14.01,2013-10-31 18:10:00,
2013-10-31 14:11:00,87.4,55.7,29.82,ENE,68,2.9,3.6,34,0.00,,---,0.00,VWS V14.01,2013-10-31 18:11:00,
2013-10-31 14:12:00,85.8,55.0,29.79,East,90,5.8,6.3,35,0.00,,---,0.00,VWS V14.01,2013-10-31 18:12:00,
2013-10-31 14:13:00,88.5,56.6,29.82,ESE,112,3.8,7.2,34,0.00,,---,0.00,VWS V14.01,2013-10-31 18:13:00,
2013-10-31 14:14:00,88.7,55.9,29.82,ENE,68,2.5,5.8,33,0.00,,---,0.00,VWS V14.01,2013-10-31 18:14:00,
2013-10-31 14:15:00,88.7,55.9,29.82,NE,45,2.0,2.7,33,0.00,,---,0.00,VWS V14.01,2013-10-31 18:15:00,
2013-10-31 14:16:00,89.8,57.7,29.82,SE,135,2.9,2.9,34,0.00,,---,0.00,VWS V14.01,2013-10-31 18:16:00,
2013-10-31 14:17:00,85.6,55.7,29.79,ESE,112,2.5,2.5,36,0.00,,---,0.00,VWS V14.01,2013-10-31 18:17:00,
2013-10-31 14:18:00,89.4,56.6,29.82,ENE,68,6.5,6.5,33,0.00,,---,0.00,VWS V14.01,2013-10-31 18:18:00,
2013-10-31 14:19:00,89.4,56.6,29.82,East,90,2.9,6.5,33,0.00,,---,0.00,VWS V14.01,2013-10-31 18:19:00,
2013-10-31 14:20:00,88.7,55.9,29.82,East,90,1.6,3.4,33,0.00,,---,0.00,VWS V14.01,2013-10-31 18:20:00,
2013-10-31 14:21:00,89.2,56.4,29.82,NE,45,4.3,6.0,33,0.00,,---,0.00,VWS V14.01,2013-10-31 18:21:00,
2013-10-31 14:22:00,86.2,55.3,29.79,SE,135,2.0,6.0,35,0.00,,---,0.00,VWS V14.01,2013-10-31 18:22:00,
2013-10-31 14:23:00,89.8,56.0,29.82,NE,45,3.6,4.3,32,0.00,,---,0.00,VWS V14.01,2013-10-31 18:23:00,
2013-10-31 14:24:00,89.4,56.6,29.82,East,90,3.1,4.9,33,0.00,,---,0.00,VWS V14.01,2013-10-31 18:24:00,
2013-10-31 14:25:00,89.2,56.4,29.82,ESE,112,4.9,6.3,33,0.00,,---,0.00,VWS V14.01,2013-10-31 18:25:00,
2013-10-31 14:26:00,89.2,56.4,29.82,East,90,3.6,4.9,33,0.00,,---,0.00,VWS V14.01,2013-10-31 18:26:00,
2013-10-31 14:27:00,88.7,56.8,29.79,NE,45,3.6,5.6,34,0.00,,---,0.00,VWS V14.01,2013-10-31 18:27:00,
2013-10-31 14:28:00,88.2,54.6,29.82,SSE,158,4.7,6.3,32,0.00,,---,0.00,VWS V14.01,2013-10-31 18:28:00,
2013-10-31 14:29:00,87.6,55.0,29.82,NE,45,7.2,7.2,33,0.00,,---,0.00,VWS V14.01,2013-10-31 18:29:00,
2013-10-31 14:30:00,87.6,55.0,29.82,SSE,158,3.1,7.2,33,0.00,,---,0.00,VWS V14.01,2013-10-31 18:30:00,
2013-10-31 14:31:00,88.0,55.3,29.82,ESE,112,3.8,5.4,33,0.00,,---,0.00,VWS V14.01,2013-10-31 18:31:00,
2013-10-31 14:32:00,89.2,57.2,29.79,East,90,4.7,6.5,34,0.00,,---,0.00,VWS V14.01,2013-10-31 18:32:00,
2013-10-31 14:33:00,89.1,57.1,29.82,ESE,112,3.1,4.3,34,0.00,,---,0.00,VWS V14.01,2013-10-31 18:33:00,
2013-10-31 14:34:00,89.6,56.7,29.82,ESE,112,2.9,3.8,33,0.00,,---,0.00,VWS V14.01,2013-10-31 18:34:00,
2013-10-31 14:35:00,90.0,57.9,29.82,East,90,5.8,5.8,34,0.00,,---,0.00,VWS V14.01,2013-10-31 18:35:00,
2013-10-31 14:36:00,90.1,58.0,29.80,SE,135,5.8,5.8,34,0.00,,---,0.00,VWS V14.01,2013-10-31 18:36:00,
2013-10-31 14:37:00,90.3,55.6,29.76,ESE,112,3.4,3.4,31,0.00,,---,0.00,VWS V14.01,2013-10-31 18:37:00,
2013-10-31 14:38:00,90.1,56.3,29.80,ESE,112,5.8,8.7,32,0.00,,---,0.00,VWS V14.01,2013-10-31 18:38:00,
2013-10-31 14:39:00,90.7,56.8,29.80,East,90,4.3,7.2,32,0.00,,---,0.00,VWS V14.01,2013-10-31 18:39:00,
2013-10-31 14:40:00,91.2,57.3,29.80,NE,45,4.3,7.2,32,0.00,,---,0.00,VWS V14.01,2013-10-31 18:40:00,
2013-10-31 14:41:00,90.9,57.0,29.80,ENE,68,3.6,4.9,32,0.00,,---,0.00,VWS V14.01,2013-10-31 18:41:00,
2013-10-31 14:42:00,89.8,55.1,29.76,ENE,68,6.0,7.2,31,0.00,,---,0.00,VWS V14.01,2013-10-31 18:42:00,
2013-10-31 14:43:00,90.1,55.5,29.80,ESE,112,2.0,3.6,31,0.00,,---,0.00,VWS V14.01,2013-10-31 18:43:00,
2013-10-31 14:44:00,89.4,54.8,29.80,East,90,10.7,10.7,31,0.00,,---,0.00,VWS V14.01,2013-10-31 18:44:00,
2013-10-31 14:45:00,88.7,54.2,29.80,East,90,8.5,10.7,31,0.00,,---,0.00,VWS V14.01,2013-10-31 18:45:00,
2013-10-31 14:46:00,88.7,54.2,29.80,ENE,68,8.5,8.5,31,0.00,,---,0.00,VWS V14.01,2013-10-31 18:46:00,
2013-10-31 14:47:00,90.3,55.6,29.76,SE,135,4.0,4.0,31,0.00,,---,0.00,VWS V14.01,2013-10-31 18:47:00,
2013-10-31 14:48:00,86.7,53.4,29.80,SE,135,2.7,4.3,32,0.00,,---,0.00,VWS V14.01,2013-10-31 18:48:00,
2013-10-31 14:49:00,86.4,53.9,29.80,SE,135,4.7,5.4,33,0.00,,---,0.00,VWS V14.01,2013-10-31 18:49:00,
2013-10-31 14:50:00,86.4,53.9,29.80,SE,135,3.1,5.6,33,0.00,,---,0.00,VWS V14.01,2013-10-31 18:50:00,
2013-10-31 14:51:00,86.2,53.7,29.80,East,90,3.4,5.6,33,0.00,,---,0.00,VWS V14.01,2013-10-31 18:51:00,
2013-10-31 14:52:00,89.4,53.9,29.76,SE,135,3.8,3.8,30,0.00,,---,0.00,VWS V14.01,2013-10-31 18:52:00,
2013-10-31 14:53:00,86.7,54.2,29.80,SE,135,5.4,6.5,33,0.00,,---,0.00,VWS V14.01,2013-10-31 18:53:00,
2013-10-31 14:54:00,87.6,55.8,29.80,NNE,22,3.6,7.2,34,0.00,,---,0.00,VWS V14.01,2013-10-31 18:54:00,
2013-10-31 14:55:00,88.0,54.5,29.80,East,90,4.7,7.4,32,0.00,,---,0.00,VWS V14.01,2013-10-31 18:55:00,
2013-10-31 14:56:00,87.8,55.2,29.80,East,90,4.3,5.6,33,0.00,,---,0.00,VWS V14.01,2013-10-31 18:56:00,
2013-10-31 14:57:00,90.9,55.2,29.76,ESE,112,7.6,7.6,30,0.00,,---,0.00,VWS V14.01,2013-10-31 18:57:00,
2013-10-31 14:58:00,87.8,55.2,29.80,South,180,3.1,4.7,33,0.00,,---,0.00,VWS V14.01,2013-10-31 18:58:00,
2013-10-31 14:59:00,87.4,55.7,29.80,SSE,158,2.9,3.1,34,0.00,,---,0.00,VWS V14.01,2013-10-31 18:59:00,
2013-10-31 15:00:00,87.1,55.3,29.80,ESE,112,3.4,3.4,34,0.00,,---,0.00,VWS V14.01,2013-10-31 19:00:00,
2013-10-31 15:01:00,86.5,54.0,29.80,SW,225,2.7,6.3,33,0.00,,---,0.00,VWS V14.01,2013-10-31 19:01:00,
2013-10-31 15:02:00,91.0,54.4,29.76,ENE,68,2.7,6.3,29,0.00,,---,0.00,VWS V14.01,2013-10-31 19:02:00,
2013-10-31 15:03:00,86.4,54.7,29.80,East,90,2.5,3.6,34,0.00,,---,0.00,VWS V14.01,2013-10-31 19:03:00,
2013-10-31 15:04:00,86.7,55.8,29.80,ENE,68,2.0,2.5,35,0.00,,---,0.00,VWS V14.01,2013-10-31 19:04:00,
2013-10-31 15:05:00,86.5,54.9,29.80,South,180,3.8,6.3,34,0.00,,---,0.00,VWS V14.01,2013-10-31 19:05:00,
2013-10-31 15:06:00,86.5,54.9,29.80,East,90,3.6,3.8,34,0.00,,---,0.00,VWS V14.01,2013-10-31 19:06:00,
2013-10-31 15:07:00,89.8,53.3,29.76,ESE,112,5.8,5.8,29,0.00,,---,0.00,VWS V14.01,2013-10-31 19:07:00,
2013-10-31 15:08:00,86.0,54.4,29.80,SE,135,3.1,6.0,34,0.00,,---,0.00,VWS V14.01,2013-10-31 19:08:00,
2013-10-31 15:09:00,85.8,54.2,29.80,ESE,112,5.4,5.4,34,0.00,,---,0.00,VWS V14.01,2013-10-31 19:09:00,
2013-10-31 15:10:00,85.5,54.7,29.80,ENE,68,4.0,7.2,35,0.00,,---,0.00,VWS V14.01,2013-10-31 19:10:00,
2013-10-31 15:11:00,85.5,53.9,29.80,ESE,112,3.4,4.0,34,0.00,,---,0.00,VWS V14.01,2013-10-31 19:11:00,
2013-10-31 15:12:00,89.2,53.8,29.76,SE,135,4.9,4.9,30,0.00,,---,0.00,VWS V14.01,2013-10-31 19:12:00,
2013-10-31 15:13:00,85.8,55.0,29.80,East,90,5.8,6.3,35,0.00,,---,0.00,VWS V14.01,2013-10-31 19:13:00,
2013-10-31 15:14:00,85.8,55.0,29.80,SE,135,2.5,5.8,35,0.00,,---,0.00,VWS V14.01,2013-10-31 19:14:00,
2013-10-31 15:15:00,85.8,55.8,29.80,ENE,68,2.2,3.1,36,0.00,,---,0.00,VWS V14.01,2013-10-31 19:15:00,
2013-10-31 15:16:00,85.8,55.8,29.80,ESE,112,3.8,3.8,36,0.00,,---,0.00,VWS V14.01,2013-10-31 19:16:00,
2013-10-31 15:17:00,88.5,53.2,29.76,East,90,3.8,3.8,30,0.00,,---,0.00,VWS V14.01,2013-10-31 19:17:00,
2013-10-31 15:18:00,85.6,54.9,29.80,East,90,4.9,4.9,35,0.00,,---,0.00,VWS V14.01,2013-10-31 19:18:00,
2013-10-31 15:19:00,85.6,54.9,29.80,ESE,112,2.5,5.4,35,0.00,,---,0.00,VWS V14.01,2013-10-31 19:19:00,
2013-10-31 15:20:00,85.6,54.9,29.80,East,90,7.2,7.2,35,0.00,,---,0.00,VWS V14.01,2013-10-31 19:20:00,
2013-10-31 15:21:00,85.6,54.9,29.80,ESE,112,4.0,7.2,35,0.00,,---,0.00,VWS V14.01,2013-10-31 19:21:00,
2013-10-31 15:22:00,90.0,53.5,29.76,NE,45,2.5,3.4,29,0.00,,---,0.00,VWS V14.01,2013-10-31 19:22:00,
2013-10-31 15:23:00,87.1,56.1,29.80,SE,135,1.1,6.0,35,0.00,,---,0.00,VWS V14.01,2013-10-31 19:23:00,
2013-10-31 15:24:00,87.8,56.8,29.80,SE,135,0.0,1.3,35,0.00,,---,0.00,VWS V14.01,2013-10-31 19:24:00,
2013-10-31 15:25:00,88.2,57.1,29.80,East,90,7.2,7.2,35,0.00,,---,0.00,VWS V14.01,2013-10-31 19:25:00,
2013-10-31 15:26:00,88.2,55.5,29.80,ESE,112,6.0,9.2,33,0.00,,---,0.00,VWS V14.01,2013-10-31 19:26:00,
2013-10-31 15:27:00,90.0,53.5,29.76,NE,45,2.5,3.4,29,0.00,,---,0.00,VWS V14.01,2013-10-31 19:27:00,
2013-10-31 15:28:00,88.7,56.8,29.80,East,90,6.7,6.7,34,0.00,,---,0.00,VWS V14.01,2013-10-31 19:28:00,
2013-10-31 15:29:00,88.9,56.1,29.80,ESE,112,3.8,6.7,33,0.00,,---,0.00,VWS V14.01,2013-10-31 19:29:00,
2013-10-31 15:30:00,88.9,56.1,29.80,ESE,112,2.9,5.4,33,0.00,,---,0.00,VWS V14.01,2013-10-31 19:30:00,
2013-10-31 15:31:00,89.2,57.2,29.80,ENE,68,3.8,4.3,34,0.00,,---,0.00,VWS V14.01,2013-10-31 19:31:00,
2013-10-31 15:32:00,89.2,57.2,29.80,ESE,112,6.0,6.0,34,0.00,,---,0.00,VWS V14.01,2013-10-31 19:32:00,
2013-10-31 15:33:00,89.6,55.9,29.80,NE,45,3.6,6.5,32,0.00,,---,0.00,VWS V14.01,2013-10-31 19:33:00,
2013-10-31 15:34:00,89.6,55.9,29.80,WSW,248,4.3,4.3,32,0.00,,---,0.00,VWS V14.01,2013-10-31 19:34:00,
2013-10-31 15:35:00,89.6,55.9,29.80,East,90,2.9,4.3,32,0.00,,---,0.00,VWS V14.01,2013-10-31 19:35:00,
2013-10-31 15:36:00,90.1,56.3,29.76,East,90,4.5,4.5,32,0.00,,---,0.00,VWS V14.01,2013-10-31 19:36:00,
2013-10-31 15:37:00,90.1,55.5,29.76,South,180,3.1,7.8,31,0.00,,---,0.00,VWS V14.01,2013-10-31 19:37:00,
2013-10-31 15:38:00,90.3,55.6,29.76,East,90,2.5,3.4,31,0.00,,---,0.00,VWS V14.01,2013-10-31 19:38:00,
2013-10-31 15:39:00,90.3,55.6,29.76,SE,135,4.0,4.3,31,0.00,,---,0.00,VWS V14.01,2013-10-31 19:39:00,
2013-10-31 15:40:00,90.7,55.9,29.76,East,90,2.9,4.0,31,0.00,,---,0.00,VWS V14.01,2013-10-31 19:40:00,
2013-10-31 15:41:00,90.3,55.6,29.76,East,90,5.8,5.8,31,0.00,,---,0.00,VWS V14.01,2013-10-31 19:41:00,
2013-10-31 15:42:00,89.8,55.2,29.76,ENE,68,6.0,7.2,31,0.00,,---,0.00,VWS V14.01,2013-10-31 19:42:00,
2013-10-31 15:43:00,89.8,55.2,29.76,ESE,112,4.9,6.0,31,0.00,,---,0.00,VWS V14.01,2013-10-31 19:43:00,
2013-10-31 15:44:00,89.6,55.0,29.76,ENE,68,6.3,6.3,31,0.00,,---,0.00,VWS V14.01,2013-10-31 19:44:00,
2013-10-31 15:45:00,90.0,56.2,29.76,ESE,112,4.9,6.3,32,0.00,,---,0.00,VWS V14.01,2013-10-31 19:45:00,
2013-10-31 15:46:00,90.1,55.5,29.76,East,90,8.1,8.1,31,0.00,,---,0.00,VWS V14.01,2013-10-31 19:46:00,
2013-10-31 15:47:00,90.3,55.6,29.76,SSE,158,2.9,8.1,31,0.00,,---,0.00,VWS V14.01,2013-10-31 19:47:00,
2013-10-31 15:48:00,89.6,55.0,29.76,East,90,3.6,4.0,31,0.00,,---,0.00,VWS V14.01,2013-10-31 19:48:00,
2013-10-31 15:49:00,89.6,54.1,29.76,ESE,112,9.6,9.6,30,0.00,,---,0.00,VWS V14.01,2013-10-31 19:49:00,
2013-10-31 15:50:00,89.6,54.1,29.76,ESE,112,4.9,9.6,30,0.00,,---,0.00,VWS V14.01,2013-10-31 19:50:00,
2013-10-31 15:52:00,89.4,53.9,29.76,NE,45,3.8,4.9,30,0.00,,---,0.00,VWS V14.01,2013-10-31 19:52:00,
2013-10-31 15:53:00,89.4,53.9,29.76,ESE,112,5.8,5.8,30,0.00,,---,0.00,VWS V14.01,2013-10-31 19:53:00,
2013-10-31 15:54:00,90.1,54.6,29.76,SW,225,2.5,5.8,30,0.00,,---,0.00,VWS V14.01,2013-10-31 19:54:00,
2013-10-31 15:55:00,90.1,54.6,29.76,East,90,4.9,4.9,30,0.00,,---,0.00,VWS V14.01,2013-10-31 19:55:00,
2013-10-31 15:56:00,90.7,55.0,29.76,SW,225,3.6,4.9,30,0.00,,---,0.00,VWS V14.01,2013-10-31 19:56:00,
2013-10-31 15:57:00,90.9,55.2,29.76,ESE,112,3.6,6.0,30,0.00,,---,0.00,VWS V14.01,2013-10-31 19:57:00,
2013-10-31 15:58:00,90.5,53.9,29.76,ESE,112,2.2,7.8,29,0.00,,---,0.00,VWS V14.01,2013-10-31 19:58:00,
2013-10-31 15:59:00,90.7,55.0,29.76,SE,135,4.9,4.9,30,0.00,,---,0.00,VWS V14.01,2013-10-31 19:59:00,
2013-10-31 16:00:00,91.2,55.5,29.76,SE,135,3.8,6.0,30,0.00,,---,0.00,VWS V14.01,2013-10-31 20:00:00,
2013-10-31 16:01:00,91.2,55.5,29.76,ESE,112,4.0,7.8,30,0.00,,---,0.00,VWS V14.01,2013-10-31 20:01:00,
2013-10-31 16:02:00,91.0,54.4,29.76,East,90,6.3,6.3,29,0.00,,---,0.00,VWS V14.01,2013-10-31 20:02:00,
2013-10-31 16:03:00,90.5,53.9,29.76,ENE,68,5.6,6.3,29,0.00,,---,0.00,VWS V14.01,2013-10-31 20:03:00,
2013-10-31 16:04:00,90.5,53.9,29.76,ESE,112,7.6,8.1,29,0.00,,---,0.00,VWS V14.01,2013-10-31 20:04:00,
2013-10-31 16:05:00,90.1,54.6,29.76,ESE,112,3.6,7.6,30,0.00,,---,0.00,VWS V14.01,2013-10-31 20:05:00,
2013-10-31 16:06:00,90.0,54.4,29.76,SE,135,3.4,5.8,30,0.00,,---,0.00,VWS V14.01,2013-10-31 20:06:00,
2013-10-31 16:07:00,89.8,54.2,29.76,ESE,112,4.7,6.5,30,0.00,,---,0.00,VWS V14.01,2013-10-31 20:07:00,
2013-10-31 16:08:00,89.8,53.3,29.76,SE,135,3.8,5.8,29,0.00,,---,0.00,VWS V14.01,2013-10-31 20:08:00,
2013-10-31 16:09:00,89.8,53.3,29.76,SE,135,7.8,7.8,29,0.00,,---,0.00,VWS V14.01,2013-10-31 20:09:00,
2013-10-31 16:10:00,89.6,53.2,29.76,SSE,158,2.7,8.5,29,0.00,,---,0.00,VWS V14.01,2013-10-31 20:10:00,
2013-10-31 16:11:00,89.4,53.9,29.76,ESE,112,4.0,5.6,30,0.00,,---,0.00,VWS V14.01,2013-10-31 20:11:00,
2013-10-31 16:12:00,89.2,53.8,29.76,SE,135,4.9,4.9,30,0.00,,---,0.00,VWS V14.01,2013-10-31 20:12:00,
2013-10-31 16:13:00,88.9,53.5,29.76,East,90,2.5,4.9,30,0.00,,---,0.00,VWS V14.01,2013-10-31 20:13:00,
2013-10-31 16:14:00,88.9,53.5,29.76,East,90,2.7,3.4,30,0.00,,---,0.00,VWS V14.01,2013-10-31 20:14:00,
2013-10-31 16:15:00,88.9,53.5,29.76,North,0,5.4,5.4,30,0.00,,---,0.00,VWS V14.01,2013-10-31 20:15:00,
2013-10-31 16:16:00,89.1,53.6,29.76,SE,135,4.0,5.4,30,0.00,,---,0.00,VWS V14.01,2013-10-31 20:16:00,
2013-10-31 16:17:00,88.5,53.2,29.76,East,90,2.7,6.0,30,0.00,,---,0.00,VWS V14.01,2013-10-31 20:17:00,
2013-10-31 16:18:00,88.5,53.2,29.76,SE,135,3.1,4.0,30,0.00,,---,0.00,VWS V14.01,2013-10-31 20:18:00,
2013-10-31 16:19:00,88.3,53.0,29.76,ESE,112,2.0,3.8,30,0.00,,---,0.00,VWS V14.01,2013-10-31 20:19:00,
2013-10-31 16:20:00,88.9,53.5,29.76,SSW,202,2.7,3.4,30,0.00,,---,0.00,VWS V14.01,2013-10-31 20:20:00,
2013-10-31 16:21:00,89.4,53.9,29.76,SSW,202,2.7,6.3,30,0.00,,---,0.00,VWS V14.01,2013-10-31 20:21:00,
2013-10-31 16:22:00,90.0,53.5,29.76,NE,45,2.5,3.4,29,0.00,,---,0.00,VWS V14.01,2013-10-31 20:22:00,